GEC8382 EDDF-RJAA
Flight info
| Callsign | GEC8382 |
|---|---|
| Flight time | 12h 14m |
| Altitude | 29000 |
| Route | SULUS4D SULUS Z650 VEMUT DCT ETVIS DCT BUDEX DCT TEGRI DCT UDROS UM859 KARDE UL851 TBN UR317 REBLO/N0486F310 DCT TABAS DCT MATAL T916 BALUN/K0904F310 T916 PIGAL M610 BASPI/K0893F330 M610 RULAD/K0893S1010 A343 POSOT B215 FKG W188 LIKMI W270 DKO W69 HUR B339 LADIX W34 IRTAK/K0896S1070 W34 VAPGU W100 ORAVA W201 UNSEK A326 DONVO G597 AGAVO/N0486F350 Y644 EGOBA Y697 LANAT Y51 SAMON Y517 ESKAS Y303 ENTAK Y30 SWAMP |
| Aircraft | B77L/H-SDE1E2E3FGHIJ2J3J4J5M1RWXY/LB1D1 |
Departure
| Time | 2026-04-11 00:45 |
|---|---|
| Airport | Frankfurt Main Airport (EDDF) |
Arrival
| Time | 2026-04-11 13:00 |
|---|---|
| Airport | Narita International Airport (RJAA) |
| Time | Latitude | Longitude | Altitude | Speed | Heading |
|---|---|---|---|---|---|
| 2026-04-11 00:15 | 50.03756 | 8.53223 | 358 ft | 0 kts | 340° |
| 2026-04-11 00:36 | 50.03750 | 8.53227 | 360 ft | 3 kts | 347° |
| 2026-04-11 00:36 | 50.03731 | 8.53229 | 352 ft | 3 kts | 8° |
| 2026-04-11 00:37 | 50.03711 | 8.53224 | 360 ft | 3 kts | 9° |
| 2026-04-11 00:37 | 50.03693 | 8.53219 | 360 ft | 3 kts | 9° |
| 2026-04-11 00:37 | 50.03674 | 8.53214 | 360 ft | 3 kts | 21° |
| 2026-04-11 00:37 | 50.03657 | 8.53200 | 355 ft | 3 kts | 34° |
| 2026-04-11 00:38 | 50.03642 | 8.53182 | 360 ft | 3 kts | 51° |
| 2026-04-11 00:38 | 50.03635 | 8.53167 | 360 ft | 0 kts | 64° |
| 2026-04-11 00:41 | 50.03650 | 8.53221 | 359 ft | 14 kts | 68° |
| 2026-04-11 00:41 | 50.03683 | 8.53362 | 358 ft | 12 kts | 70° |
| 2026-04-11 00:42 | 50.03705 | 8.53489 | 353 ft | 12 kts | 86° |
| 2026-04-11 00:42 | 50.03645 | 8.53558 | 358 ft | 12 kts | 186° |
| 2026-04-11 00:42 | 50.03563 | 8.53516 | 358 ft | 12 kts | 203° |
| 2026-04-11 00:42 | 50.03482 | 8.53459 | 358 ft | 13 kts | 202° |
| 2026-04-11 00:43 | 50.03407 | 8.53454 | 357 ft | 11 kts | 158° |
| 2026-04-11 00:43 | 50.03389 | 8.53472 | 360 ft | 0 kts | 143° |
| 2026-04-11 00:44 | 50.03385 | 8.53476 | 360 ft | 5 kts | 141° |
| 2026-04-11 00:44 | 50.03322 | 8.53621 | 358 ft | 24 kts | 107° |
| 2026-04-11 00:44 | 50.03376 | 8.53941 | 353 ft | 54 kts | 69° |
| 2026-04-11 00:45 | 50.03600 | 8.54869 | 358 ft | 127 kts | 69° |
| 2026-04-11 00:45 | 50.03994 | 8.56486 | 372 ft | 187 kts | 69° |
| 2026-04-11 00:45 | 50.04438 | 8.58465 | 663 ft | 203 kts | 71° |
| 2026-04-11 00:45 | 50.04893 | 8.60610 | 1173 ft | 216 kts | 71° |
| 2026-04-11 00:46 | 50.05423 | 8.62898 | 1661 ft | 235 kts | 72° |
| 2026-04-11 00:46 | 50.05977 | 8.65332 | 2066 ft | 243 kts | 73° |
| 2026-04-11 00:46 | 50.06538 | 8.67849 | 2468 ft | 248 kts | 73° |
| 2026-04-11 00:46 | 50.07052 | 8.70423 | 2887 ft | 249 kts | 84° |
| 2026-04-11 00:47 | 50.07185 | 8.73173 | 3390 ft | 260 kts | 91° |
| 2026-04-11 00:47 | 50.07180 | 8.76036 | 3904 ft | 268 kts | 92° |
| 2026-04-11 00:47 | 50.07157 | 8.78963 | 4472 ft | 273 kts | 91° |
| 2026-04-11 00:47 | 50.07139 | 8.81949 | 5060 ft | 278 kts | 91° |
| 2026-04-11 00:48 | 50.07130 | 8.84994 | 5584 ft | 285 kts | 90° |
| 2026-04-11 00:48 | 50.07129 | 8.88104 | 6122 ft | 291 kts | 90° |
| 2026-04-11 00:48 | 50.07136 | 8.91298 | 6634 ft | 297 kts | 89° |
| 2026-04-11 00:48 | 50.07147 | 8.94538 | 7193 ft | 300 kts | 89° |
| 2026-04-11 00:49 | 50.07162 | 8.97812 | 7759 ft | 304 kts | 89° |
| 2026-04-11 00:49 | 50.07179 | 9.01116 | 8295 ft | 308 kts | 89° |
| 2026-04-11 00:49 | 50.07197 | 9.04425 | 8825 ft | 312 kts | 89° |
| 2026-04-11 00:49 | 50.07216 | 9.07817 | 9367 ft | 316 kts | 89° |
| 2026-04-11 00:50 | 50.07235 | 9.11258 | 9901 ft | 320 kts | 89° |
| 2026-04-11 00:50 | 50.07254 | 9.14743 | 10369 ft | 326 kts | 89° |
| 2026-04-11 00:50 | 50.07273 | 9.18368 | 10500 ft | 344 kts | 89° |
| 2026-04-11 00:50 | 50.07293 | 9.22184 | 10653 ft | 361 kts | 89° |
| 2026-04-11 00:51 | 50.07312 | 9.26197 | 10807 ft | 379 kts | 89° |
| 2026-04-11 00:51 | 50.07330 | 9.30375 | 11126 ft | 392 kts | 89° |
| 2026-04-11 00:51 | 50.07346 | 9.34669 | 11582 ft | 399 kts | 89° |
| 2026-04-11 00:51 | 50.07362 | 9.39022 | 12150 ft | 404 kts | 88° |
| 2026-04-11 00:52 | 50.07375 | 9.43423 | 12751 ft | 408 kts | 88° |
| 2026-04-11 00:52 | 50.07387 | 9.47870 | 13337 ft | 412 kts | 88° |
| 2026-04-11 00:52 | 50.07398 | 9.52360 | 13911 ft | 417 kts | 88° |
| 2026-04-11 00:52 | 50.07407 | 9.56902 | 14426 ft | 421 kts | 88° |
| 2026-04-11 00:53 | 50.07415 | 9.61467 | 15001 ft | 423 kts | 88° |
| 2026-04-11 00:53 | 50.07421 | 9.65994 | 15559 ft | 425 kts | 88° |
| 2026-04-11 00:53 | 50.07425 | 9.70615 | 16099 ft | 428 kts | 88° |
| 2026-04-11 00:53 | 50.07427 | 9.75272 | 16643 ft | 431 kts | 88° |
| 2026-04-11 00:54 | 50.07428 | 9.79956 | 17159 ft | 434 kts | 88° |
| 2026-04-11 00:54 | 50.07425 | 9.84686 | 17689 ft | 437 kts | 88° |
| 2026-04-11 00:54 | 50.07421 | 9.89428 | 18213 ft | 440 kts | 88° |
| 2026-04-11 00:54 | 50.07415 | 9.94214 | 18668 ft | 444 kts | 88° |
| 2026-04-11 00:55 | 50.07408 | 9.99035 | 19089 ft | 447 kts | 88° |
| 2026-04-11 00:55 | 50.07399 | 10.03896 | 19502 ft | 451 kts | 88° |
| 2026-04-11 00:55 | 50.07387 | 10.08806 | 19918 ft | 454 kts | 88° |
| 2026-04-11 00:55 | 50.07373 | 10.13748 | 20331 ft | 458 kts | 88° |
| 2026-04-11 00:56 | 50.07358 | 10.18718 | 20742 ft | 461 kts | 87° |
| 2026-04-11 00:56 | 50.07340 | 10.23736 | 21148 ft | 464 kts | 87° |
| 2026-04-11 00:56 | 50.07338 | 10.28780 | 21559 ft | 467 kts | 86° |
| 2026-04-11 00:56 | 50.07361 | 10.33785 | 21965 ft | 470 kts | 86° |
| 2026-04-11 00:57 | 50.07393 | 10.38895 | 22361 ft | 473 kts | 86° |
| 2026-04-11 00:57 | 50.07423 | 10.44048 | 22762 ft | 477 kts | 86° |
| 2026-04-11 00:57 | 50.07446 | 10.49237 | 23154 ft | 480 kts | 86° |
| 2026-04-11 00:57 | 50.07464 | 10.54454 | 23551 ft | 483 kts | 86° |
| 2026-04-11 00:58 | 50.07478 | 10.59708 | 23892 ft | 487 kts | 86° |
| 2026-04-11 00:58 | 50.07489 | 10.64999 | 24195 ft | 490 kts | 86° |
| 2026-04-11 00:58 | 50.07316 | 10.70344 | 24453 ft | 498 kts | 93° |
| 2026-04-11 00:58 | 50.06787 | 10.75693 | 24725 ft | 504 kts | 98° |
| 2026-04-11 00:59 | 50.05919 | 10.81015 | 25006 ft | 510 kts | 105° |
| 2026-04-11 00:59 | 50.04799 | 10.86274 | 25290 ft | 514 kts | 107° |
| 2026-04-11 00:59 | 50.03639 | 10.91557 | 25554 ft | 518 kts | 107° |
| 2026-04-11 00:59 | 50.02477 | 10.96878 | 25825 ft | 521 kts | 106° |
| 2026-04-11 01:00 | 50.01323 | 11.02239 | 26096 ft | 525 kts | 106° |
| 2026-04-11 01:00 | 50.00187 | 11.07583 | 26358 ft | 528 kts | 105° |
| 2026-04-11 01:00 | 49.99036 | 11.13022 | 26629 ft | 532 kts | 105° |
| 2026-04-11 01:00 | 49.97875 | 11.18501 | 26883 ft | 536 kts | 105° |
| 2026-04-11 01:01 | 49.96700 | 11.24017 | 27143 ft | 539 kts | 105° |
| 2026-04-11 01:01 | 49.95512 | 11.29564 | 27405 ft | 542 kts | 105° |
| 2026-04-11 01:01 | 49.94317 | 11.35138 | 27674 ft | 546 kts | 105° |
| 2026-04-11 01:01 | 49.93112 | 11.40747 | 27906 ft | 549 kts | 105° |
| 2026-04-11 01:02 | 49.91967 | 11.46422 | 28154 ft | 551 kts | 102° |
| 2026-04-11 01:02 | 49.90956 | 11.52167 | 28394 ft | 553 kts | 101° |
| 2026-04-11 01:02 | 49.89964 | 11.57953 | 28619 ft | 557 kts | 102° |
| 2026-04-11 01:02 | 49.88927 | 11.63757 | 28860 ft | 560 kts | 102° |
| 2026-04-11 01:03 | 49.87982 | 11.69622 | 29022 ft | 561 kts | 97° |
| 2026-04-11 01:03 | 49.86897 | 11.81583 | 29119 ft | 561 kts | 91° |
| 2026-04-11 01:04 | 49.85928 | 11.93523 | 29111 ft | 558 kts | 92° |
| 2026-04-11 01:04 | 49.84849 | 12.05412 | 29118 ft | 556 kts | 93° |
| 2026-04-11 01:05 | 49.83747 | 12.17267 | 29134 ft | 556 kts | 92° |
| 2026-04-11 01:05 | 49.82648 | 12.29119 | 29138 ft | 557 kts | 92° |
| 2026-04-11 01:06 | 49.81328 | 12.40987 | 29125 ft | 564 kts | 101° |
| 2026-04-11 01:06 | 49.78373 | 12.52328 | 29142 ft | 572 kts | 116° |
| 2026-04-11 01:07 | 49.73997 | 12.62542 | 29145 ft | 575 kts | 124° |
| 2026-04-11 01:07 | 49.69392 | 12.72636 | 29141 ft | 575 kts | 123° |
| 2026-04-11 01:08 | 49.64886 | 12.82844 | 29152 ft | 575 kts | 122° |
| 2026-04-11 01:08 | 49.60327 | 12.92982 | 29153 ft | 575 kts | 123° |
| 2026-04-11 01:09 | 49.53420 | 13.08086 | 29150 ft | 574 kts | 123° |
| 2026-04-11 01:09 | 49.48816 | 13.18140 | 29150 ft | 574 kts | 123° |
| 2026-04-11 01:10 | 49.44211 | 13.28182 | 29144 ft | 574 kts | 123° |
| 2026-04-11 01:10 | 49.39622 | 13.38153 | 29148 ft | 574 kts | 123° |
| 2026-04-11 01:11 | 49.34996 | 13.48163 | 29134 ft | 574 kts | 123° |
| 2026-04-11 01:11 | 49.30365 | 13.58145 | 29139 ft | 574 kts | 123° |
| 2026-04-11 01:12 | 49.25726 | 13.68106 | 29127 ft | 575 kts | 123° |
| 2026-04-11 01:12 | 49.21073 | 13.78061 | 29150 ft | 575 kts | 123° |
| 2026-04-11 01:13 | 49.16440 | 13.87937 | 29153 ft | 575 kts | 123° |
| 2026-04-11 01:13 | 49.11766 | 13.97863 | 29147 ft | 575 kts | 123° |
| 2026-04-11 01:14 | 49.07084 | 14.07773 | 29132 ft | 576 kts | 123° |
| 2026-04-11 01:14 | 49.02390 | 14.17669 | 29143 ft | 576 kts | 123° |
| 2026-04-11 01:15 | 48.97686 | 14.27556 | 29143 ft | 576 kts | 123° |
| 2026-04-11 01:15 | 48.93915 | 14.35896 | 29153 ft | 574 kts | 117° |
| 2026-04-11 01:16 | 48.90156 | 14.46561 | 29159 ft | 571 kts | 113° |
| 2026-04-11 01:16 | 48.86482 | 14.57272 | 29162 ft | 572 kts | 113° |
| 2026-04-11 01:17 | 48.82755 | 14.67959 | 29164 ft | 572 kts | 114° |
| 2026-04-11 01:17 | 48.78995 | 14.78593 | 29169 ft | 572 kts | 114° |
| 2026-04-11 01:18 | 48.75216 | 14.89212 | 29156 ft | 572 kts | 114° |
| 2026-04-11 01:18 | 48.71455 | 14.99747 | 29172 ft | 571 kts | 114° |
| 2026-04-11 01:19 | 48.67668 | 15.10326 | 29163 ft | 571 kts | 114° |
| 2026-04-11 01:19 | 48.63873 | 15.20888 | 29156 ft | 571 kts | 114° |
| 2026-04-11 01:20 | 48.60075 | 15.31414 | 29164 ft | 570 kts | 114° |
| 2026-04-11 01:20 | 48.56268 | 15.41916 | 29164 ft | 570 kts | 114° |
| 2026-04-11 01:21 | 48.52447 | 15.52422 | 29162 ft | 570 kts | 114° |
| 2026-04-11 01:21 | 48.48625 | 15.62886 | 29152 ft | 569 kts | 114° |
| 2026-04-11 01:22 | 48.44820 | 15.73263 | 29153 ft | 569 kts | 114° |
| 2026-04-11 01:22 | 48.40983 | 15.83681 | 29154 ft | 568 kts | 114° |
| 2026-04-11 01:23 | 48.37139 | 15.94082 | 29151 ft | 567 kts | 114° |
| 2026-04-11 01:23 | 48.33314 | 16.04388 | 29161 ft | 567 kts | 114° |
| 2026-04-11 01:24 | 48.29468 | 16.14713 | 29151 ft | 566 kts | 114° |
| 2026-04-11 01:24 | 48.25608 | 16.25034 | 29155 ft | 566 kts | 114° |
| 2026-04-11 01:25 | 48.21742 | 16.35328 | 29161 ft | 565 kts | 114° |
| 2026-04-11 01:25 | 48.17876 | 16.45585 | 29167 ft | 565 kts | 114° |
| 2026-04-11 01:26 | 48.14002 | 16.55827 | 29166 ft | 564 kts | 114° |
| 2026-04-11 01:26 | 48.10127 | 16.66030 | 29166 ft | 564 kts | 114° |
| 2026-04-11 01:27 | 48.06260 | 16.76172 | 29158 ft | 564 kts | 115° |
| 2026-04-11 01:27 | 48.02367 | 16.86341 | 29154 ft | 563 kts | 115° |
| 2026-04-11 01:28 | 47.98468 | 16.96489 | 29135 ft | 563 kts | 115° |
| 2026-04-11 01:28 | 47.94561 | 17.06619 | 29142 ft | 562 kts | 115° |
| 2026-04-11 01:29 | 47.90656 | 17.16707 | 29139 ft | 562 kts | 115° |
| 2026-04-11 01:29 | 47.86759 | 17.26735 | 29132 ft | 561 kts | 115° |
| 2026-04-11 01:30 | 47.82831 | 17.36805 | 29130 ft | 561 kts | 115° |
| 2026-04-11 01:30 | 47.78905 | 17.46835 | 29142 ft | 561 kts | 115° |
| 2026-04-11 01:31 | 47.74970 | 17.56848 | 29146 ft | 561 kts | 115° |
| 2026-04-11 01:31 | 47.71049 | 17.66787 | 29158 ft | 561 kts | 115° |
| 2026-04-11 01:32 | 47.67094 | 17.76779 | 29166 ft | 561 kts | 115° |
| 2026-04-11 01:32 | 47.63132 | 17.86748 | 29166 ft | 561 kts | 115° |
| 2026-04-11 01:33 | 47.59162 | 17.96702 | 29165 ft | 560 kts | 115° |
| 2026-04-11 01:33 | 47.55188 | 18.06630 | 29164 ft | 560 kts | 116° |
| 2026-04-11 01:34 | 47.51199 | 18.16557 | 29151 ft | 560 kts | 116° |
| 2026-04-11 01:34 | 47.47237 | 18.26382 | 29138 ft | 560 kts | 116° |
| 2026-04-11 01:35 | 47.43238 | 18.36263 | 29145 ft | 560 kts | 116° |
| 2026-04-11 01:35 | 47.39231 | 18.46129 | 29134 ft | 559 kts | 116° |
| 2026-04-11 01:36 | 47.35219 | 18.55968 | 29140 ft | 559 kts | 116° |
| 2026-04-11 01:36 | 47.31206 | 18.65778 | 29129 ft | 559 kts | 116° |
| 2026-04-11 01:37 | 47.27182 | 18.75577 | 29139 ft | 559 kts | 116° |
| 2026-04-11 01:37 | 47.23181 | 18.85288 | 29128 ft | 559 kts | 116° |
| 2026-04-11 01:38 | 47.19140 | 18.95059 | 29129 ft | 559 kts | 116° |
| 2026-04-11 01:38 | 47.15092 | 19.04811 | 29123 ft | 559 kts | 116° |
| 2026-04-11 01:39 | 47.11035 | 19.14550 | 29125 ft | 559 kts | 117° |
| 2026-04-11 01:39 | 47.06966 | 19.24283 | 29129 ft | 559 kts | 117° |
| 2026-04-11 01:40 | 47.02924 | 19.33917 | 29128 ft | 559 kts | 117° |
| 2026-04-11 01:40 | 46.98836 | 19.43629 | 29132 ft | 559 kts | 117° |
| 2026-04-11 01:41 | 46.94747 | 19.53308 | 29135 ft | 559 kts | 117° |
| 2026-04-11 01:41 | 46.90654 | 19.62964 | 29132 ft | 558 kts | 117° |
| 2026-04-11 01:42 | 46.86551 | 19.72608 | 29132 ft | 558 kts | 117° |
| 2026-04-11 01:42 | 46.82438 | 19.82242 | 29141 ft | 558 kts | 117° |
| 2026-04-11 01:43 | 46.78342 | 19.91802 | 29115 ft | 558 kts | 117° |
| 2026-04-11 01:43 | 46.74218 | 20.01396 | 29118 ft | 559 kts | 117° |
| 2026-04-11 01:44 | 46.70082 | 20.10983 | 29109 ft | 559 kts | 117° |
| 2026-04-11 01:44 | 46.66065 | 20.20263 | 29108 ft | 559 kts | 117° |
| 2026-04-11 01:45 | 46.61900 | 20.29851 | 29112 ft | 560 kts | 117° |
| 2026-04-11 01:45 | 46.58738 | 20.37109 | 29116 ft | 560 kts | 118° |
| 2026-04-11 01:46 | 46.54555 | 20.46681 | 29114 ft | 560 kts | 118° |
| 2026-04-11 01:46 | 46.50594 | 20.55716 | 29114 ft | 561 kts | 118° |
| 2026-04-11 01:47 | 46.46395 | 20.65259 | 29111 ft | 561 kts | 118° |
| 2026-04-11 01:47 | 46.42220 | 20.74717 | 29107 ft | 560 kts | 118° |
| 2026-04-11 01:48 | 46.38010 | 20.84222 | 29106 ft | 560 kts | 118° |
| 2026-04-11 01:48 | 46.33791 | 20.93717 | 29107 ft | 559 kts | 118° |
| 2026-04-11 01:49 | 46.29574 | 21.03178 | 29110 ft | 559 kts | 118° |
| 2026-04-11 01:49 | 46.25535 | 21.12730 | 29105 ft | 554 kts | 112° |
| 2026-04-11 01:50 | 46.22394 | 21.22743 | 29115 ft | 549 kts | 108° |
| 2026-04-11 01:50 | 46.19320 | 21.32849 | 29111 ft | 549 kts | 108° |
| 2026-04-11 01:51 | 46.16200 | 21.42930 | 29107 ft | 550 kts | 109° |
| 2026-04-11 01:51 | 46.13045 | 21.52979 | 29112 ft | 550 kts | 109° |
| 2026-04-11 01:52 | 46.09879 | 21.63002 | 29116 ft | 549 kts | 109° |
| 2026-04-11 01:52 | 46.06705 | 21.73020 | 29125 ft | 549 kts | 109° |
| 2026-04-11 01:53 | 46.03550 | 21.82948 | 29130 ft | 549 kts | 110° |
| 2026-04-11 01:53 | 46.00367 | 21.92930 | 29121 ft | 548 kts | 110° |
| 2026-04-11 01:54 | 45.97180 | 22.02885 | 29132 ft | 548 kts | 110° |
| 2026-04-11 01:54 | 45.93989 | 22.12812 | 29115 ft | 547 kts | 110° |
| 2026-04-11 01:55 | 45.90792 | 22.22719 | 29126 ft | 546 kts | 110° |
| 2026-04-11 01:55 | 45.87589 | 22.32608 | 29131 ft | 545 kts | 110° |
| 2026-04-11 01:56 | 45.84384 | 22.42464 | 29137 ft | 545 kts | 110° |
| 2026-04-11 01:56 | 45.81192 | 22.52251 | 29140 ft | 545 kts | 110° |
| 2026-04-11 01:57 | 45.77968 | 22.62092 | 29138 ft | 544 kts | 111° |
| 2026-04-11 01:57 | 45.74756 | 22.71857 | 29151 ft | 544 kts | 111° |
| 2026-04-11 01:58 | 45.71521 | 22.81657 | 29145 ft | 544 kts | 111° |
| 2026-04-11 01:58 | 45.68279 | 22.91441 | 29145 ft | 543 kts | 111° |
| 2026-04-11 01:59 | 45.65038 | 23.01191 | 29139 ft | 543 kts | 111° |
| 2026-04-11 01:59 | 45.61809 | 23.10869 | 29138 ft | 542 kts | 111° |
| 2026-04-11 02:00 | 45.58559 | 23.20567 | 29137 ft | 542 kts | 112° |
| 2026-04-11 02:00 | 45.55302 | 23.30252 | 29146 ft | 540 kts | 112° |
| 2026-04-11 02:01 | 45.52048 | 23.39894 | 29141 ft | 538 kts | 112° |
| 2026-04-11 02:01 | 45.48793 | 23.49502 | 29136 ft | 537 kts | 112° |
| 2026-04-11 02:02 | 45.45535 | 23.59088 | 29150 ft | 537 kts | 112° |
| 2026-04-11 02:02 | 45.42270 | 23.68662 | 29151 ft | 536 kts | 112° |
| 2026-04-11 02:03 | 45.39002 | 23.78204 | 29121 ft | 536 kts | 112° |
| 2026-04-11 02:03 | 45.35731 | 23.87722 | 29165 ft | 535 kts | 113° |
| 2026-04-11 02:04 | 45.32474 | 23.97168 | 29132 ft | 536 kts | 113° |
| 2026-04-11 02:04 | 45.29190 | 24.06660 | 29123 ft | 535 kts | 113° |
| 2026-04-11 02:05 | 45.25905 | 24.16124 | 29135 ft | 533 kts | 113° |
| 2026-04-11 02:05 | 45.22617 | 24.25553 | 29140 ft | 533 kts | 113° |
| 2026-04-11 02:06 | 45.19325 | 24.34960 | 29138 ft | 532 kts | 114° |
| 2026-04-11 02:06 | 45.16033 | 24.44340 | 29139 ft | 531 kts | 114° |
| 2026-04-11 02:07 | 45.12734 | 24.53709 | 29135 ft | 531 kts | 114° |
| 2026-04-11 02:07 | 45.09437 | 24.63037 | 29135 ft | 529 kts | 114° |
| 2026-04-11 02:08 | 45.06156 | 24.72287 | 29136 ft | 528 kts | 114° |
| 2026-04-11 02:08 | 45.02856 | 24.81561 | 29132 ft | 527 kts | 114° |
| 2026-04-11 02:09 | 45.00089 | 24.89314 | 29133 ft | 527 kts | 114° |
| 2026-04-11 02:09 | 44.96803 | 24.98488 | 29136 ft | 526 kts | 114° |
| 2026-04-11 02:10 | 44.93493 | 25.07703 | 29132 ft | 526 kts | 114° |
| 2026-04-11 02:10 | 44.90175 | 25.16905 | 29135 ft | 526 kts | 115° |
| 2026-04-11 02:11 | 44.86850 | 25.26097 | 29125 ft | 525 kts | 115° |
| 2026-04-11 02:11 | 44.83542 | 25.35212 | 29121 ft | 525 kts | 115° |
| 2026-04-11 02:12 | 44.80205 | 25.44375 | 29132 ft | 525 kts | 115° |
| 2026-04-11 02:12 | 44.76865 | 25.53513 | 29129 ft | 525 kts | 115° |
| 2026-04-11 02:13 | 44.73519 | 25.62640 | 29125 ft | 524 kts | 115° |
| 2026-04-11 02:13 | 44.70189 | 25.71694 | 29124 ft | 524 kts | 115° |
| 2026-04-11 02:14 | 44.66832 | 25.80788 | 29125 ft | 524 kts | 115° |
| 2026-04-11 02:14 | 44.63470 | 25.89869 | 29127 ft | 524 kts | 115° |
| 2026-04-11 02:15 | 44.60096 | 25.98951 | 29133 ft | 524 kts | 115° |
| 2026-04-11 02:15 | 44.56721 | 26.08007 | 29133 ft | 524 kts | 115° |
| 2026-04-11 02:16 | 44.53359 | 26.16998 | 29132 ft | 524 kts | 115° |
| 2026-04-11 02:16 | 44.49964 | 26.26046 | 29129 ft | 524 kts | 115° |
| 2026-04-11 02:17 | 44.46563 | 26.35084 | 29125 ft | 524 kts | 115° |
| 2026-04-11 02:17 | 44.43156 | 26.44105 | 29118 ft | 524 kts | 115° |
| 2026-04-11 02:18 | 44.39741 | 26.53119 | 29119 ft | 524 kts | 116° |
| 2026-04-11 02:18 | 44.36323 | 26.62113 | 29119 ft | 524 kts | 116° |
| 2026-04-11 02:19 | 44.32916 | 26.71046 | 29118 ft | 524 kts | 116° |
| 2026-04-11 02:19 | 44.29481 | 26.80027 | 29116 ft | 524 kts | 116° |
| 2026-04-11 02:20 | 44.26040 | 26.88993 | 29121 ft | 524 kts | 116° |
| 2026-04-11 02:20 | 44.22596 | 26.97938 | 29116 ft | 523 kts | 116° |
| 2026-04-11 02:21 | 44.19145 | 27.06873 | 29129 ft | 523 kts | 116° |
| 2026-04-11 02:21 | 44.15688 | 27.15796 | 29122 ft | 523 kts | 116° |
| 2026-04-11 02:22 | 44.10518 | 27.29087 | 29133 ft | 523 kts | 116° |
| 2026-04-11 02:23 | 44.07046 | 27.37976 | 29129 ft | 523 kts | 116° |
| 2026-04-11 02:23 | 44.03571 | 27.46847 | 29135 ft | 522 kts | 116° |
| 2026-04-11 02:24 | 44.00092 | 27.55700 | 29136 ft | 521 kts | 116° |
| 2026-04-11 02:24 | 43.96611 | 27.64529 | 29133 ft | 520 kts | 117° |
| 2026-04-11 02:25 | 43.93132 | 27.73326 | 29142 ft | 519 kts | 117° |
| 2026-04-11 02:25 | 43.89671 | 27.82053 | 29134 ft | 518 kts | 117° |
| 2026-04-11 02:26 | 43.86192 | 27.90794 | 29141 ft | 517 kts | 117° |
| 2026-04-11 02:26 | 43.82713 | 27.99508 | 29145 ft | 516 kts | 117° |
| 2026-04-11 02:27 | 43.79234 | 28.08198 | 29144 ft | 515 kts | 117° |
| 2026-04-11 02:27 | 43.75757 | 28.16857 | 29144 ft | 515 kts | 117° |
| 2026-04-11 02:28 | 43.72293 | 28.25457 | 29144 ft | 514 kts | 117° |
| 2026-04-11 02:28 | 43.68806 | 28.34089 | 29149 ft | 514 kts | 117° |
| 2026-04-11 02:29 | 43.65307 | 28.42722 | 29150 ft | 514 kts | 117° |
| 2026-04-11 02:29 | 43.61813 | 28.51319 | 29159 ft | 514 kts | 117° |
| 2026-04-11 02:30 | 43.58305 | 28.59922 | 29163 ft | 514 kts | 117° |
| 2026-04-11 02:30 | 43.54791 | 28.68516 | 29168 ft | 514 kts | 117° |
| 2026-04-11 02:31 | 43.51272 | 28.77096 | 29169 ft | 515 kts | 117° |
| 2026-04-11 02:31 | 43.47740 | 28.85682 | 29154 ft | 515 kts | 117° |
| 2026-04-11 02:32 | 43.44225 | 28.94202 | 29165 ft | 515 kts | 117° |
| 2026-04-11 02:32 | 43.40682 | 29.02764 | 29160 ft | 515 kts | 117° |
| 2026-04-11 02:33 | 43.37123 | 29.11337 | 29163 ft | 516 kts | 117° |
| 2026-04-11 02:33 | 43.33560 | 29.19897 | 29160 ft | 516 kts | 117° |
| 2026-04-11 02:34 | 43.29986 | 29.28457 | 29163 ft | 517 kts | 117° |
| 2026-04-11 02:34 | 43.26423 | 29.36966 | 29165 ft | 518 kts | 117° |
| 2026-04-11 02:35 | 43.22820 | 29.45544 | 29164 ft | 519 kts | 117° |
| 2026-04-11 02:35 | 43.19210 | 29.54113 | 29170 ft | 519 kts | 117° |
| 2026-04-11 02:36 | 43.15611 | 29.62634 | 29169 ft | 520 kts | 117° |
| 2026-04-11 02:36 | 43.11976 | 29.71212 | 29167 ft | 520 kts | 117° |
| 2026-04-11 02:37 | 43.08333 | 29.79784 | 29176 ft | 521 kts | 117° |
| 2026-04-11 02:37 | 43.04683 | 29.88347 | 29168 ft | 521 kts | 117° |
| 2026-04-11 02:38 | 43.01022 | 29.96911 | 29173 ft | 521 kts | 117° |
| 2026-04-11 02:38 | 42.97353 | 30.05468 | 29179 ft | 522 kts | 117° |
| 2026-04-11 02:39 | 42.93704 | 30.13956 | 29175 ft | 522 kts | 117° |
| 2026-04-11 02:39 | 42.90017 | 30.22506 | 29175 ft | 522 kts | 117° |
| 2026-04-11 02:40 | 42.86326 | 30.31041 | 29174 ft | 523 kts | 117° |
| 2026-04-11 02:40 | 42.82627 | 30.39571 | 29175 ft | 523 kts | 117° |
| 2026-04-11 02:41 | 42.78919 | 30.48099 | 29176 ft | 523 kts | 117° |
| 2026-04-11 02:41 | 42.75418 | 30.56743 | 29159 ft | 518 kts | 109° |
| 2026-04-11 02:42 | 42.73234 | 30.65940 | 29170 ft | 511 kts | 97° |
| 2026-04-11 02:42 | 42.72206 | 30.75427 | 29176 ft | 506 kts | 92° |
| 2026-04-11 02:43 | 42.71307 | 30.84939 | 29178 ft | 507 kts | 92° |
| 2026-04-11 02:43 | 42.70361 | 30.94445 | 29177 ft | 507 kts | 92° |
| 2026-04-11 02:44 | 42.69382 | 31.03941 | 29175 ft | 507 kts | 93° |
| 2026-04-11 02:44 | 42.68389 | 31.13438 | 29172 ft | 507 kts | 93° |
| 2026-04-11 02:45 | 42.67392 | 31.22916 | 29171 ft | 506 kts | 93° |
| 2026-04-11 02:45 | 42.66396 | 31.32331 | 29173 ft | 505 kts | 93° |
| 2026-04-11 02:46 | 42.65390 | 31.41767 | 29174 ft | 505 kts | 93° |
| 2026-04-11 02:46 | 42.64377 | 31.51188 | 29173 ft | 504 kts | 93° |
| 2026-04-11 02:47 | 42.63361 | 31.60564 | 29170 ft | 504 kts | 94° |
| 2026-04-11 02:47 | 42.62333 | 31.69984 | 29171 ft | 504 kts | 94° |
| 2026-04-11 02:48 | 42.61298 | 31.79392 | 29169 ft | 504 kts | 94° |
| 2026-04-11 02:48 | 42.60254 | 31.88803 | 29173 ft | 504 kts | 95° |
| 2026-04-11 02:49 | 42.59204 | 31.98211 | 29171 ft | 504 kts | 95° |
| 2026-04-11 02:49 | 42.58078 | 32.07613 | 29170 ft | 505 kts | 96° |
| 2026-04-11 02:50 | 42.56969 | 32.17006 | 29170 ft | 504 kts | 95° |
| 2026-04-11 02:50 | 42.55915 | 32.26414 | 29171 ft | 504 kts | 96° |
| 2026-04-11 02:51 | 42.54844 | 32.35828 | 29173 ft | 504 kts | 96° |
| 2026-04-11 02:51 | 42.53753 | 32.45225 | 29169 ft | 504 kts | 97° |
| 2026-04-11 02:52 | 42.52649 | 32.54623 | 29177 ft | 504 kts | 97° |
| 2026-04-11 02:52 | 42.51547 | 32.63944 | 29169 ft | 504 kts | 97° |
| 2026-04-11 02:53 | 42.50430 | 32.73337 | 29166 ft | 504 kts | 98° |
| 2026-04-11 02:53 | 42.49307 | 32.82712 | 29167 ft | 504 kts | 98° |
| 2026-04-11 02:54 | 42.48175 | 32.92088 | 29166 ft | 503 kts | 98° |
| 2026-04-11 02:54 | 42.47045 | 33.01391 | 29171 ft | 503 kts | 98° |
| 2026-04-11 02:55 | 42.45904 | 33.10733 | 29171 ft | 503 kts | 99° |
| 2026-04-11 02:55 | 42.44758 | 33.20076 | 29174 ft | 502 kts | 99° |
| 2026-04-11 02:56 | 42.43624 | 33.29345 | 29165 ft | 502 kts | 99° |
| 2026-04-11 02:56 | 42.42478 | 33.38657 | 29166 ft | 501 kts | 99° |
| 2026-04-11 02:57 | 42.41314 | 33.47959 | 29166 ft | 500 kts | 99° |
| 2026-04-11 02:57 | 42.40133 | 33.57231 | 29164 ft | 499 kts | 100° |
| 2026-04-11 02:58 | 42.38957 | 33.66411 | 29166 ft | 498 kts | 100° |
| 2026-04-11 02:58 | 42.37773 | 33.75616 | 29164 ft | 496 kts | 100° |
| 2026-04-11 02:59 | 42.36585 | 33.84807 | 29165 ft | 495 kts | 100° |
| 2026-04-11 02:59 | 42.35389 | 33.93985 | 29166 ft | 494 kts | 100° |
| 2026-04-11 03:00 | 42.34194 | 34.03133 | 29164 ft | 493 kts | 101° |
| 2026-04-11 03:00 | 42.32996 | 34.12256 | 29168 ft | 493 kts | 101° |
| 2026-04-11 03:01 | 42.31801 | 34.21298 | 29162 ft | 492 kts | 101° |
| 2026-04-11 03:01 | 42.30592 | 34.30390 | 29165 ft | 491 kts | 101° |
| 2026-04-11 03:02 | 42.29377 | 34.39471 | 29162 ft | 491 kts | 101° |
| 2026-04-11 03:02 | 42.28352 | 34.47005 | 29158 ft | 490 kts | 101° |
| 2026-04-11 03:03 | 42.27106 | 34.56060 | 29159 ft | 490 kts | 101° |
| 2026-04-11 03:03 | 42.25854 | 34.65116 | 29163 ft | 490 kts | 101° |
| 2026-04-11 03:04 | 42.24600 | 34.74164 | 29157 ft | 490 kts | 101° |
| 2026-04-11 03:04 | 42.23338 | 34.83211 | 29171 ft | 491 kts | 101° |
| 2026-04-11 03:05 | 42.22073 | 34.92256 | 29181 ft | 491 kts | 101° |
| 2026-04-11 03:05 | 42.20801 | 35.01324 | 29177 ft | 491 kts | 101° |
| 2026-04-11 03:06 | 42.19523 | 35.10374 | 29181 ft | 491 kts | 101° |
| 2026-04-11 03:06 | 42.18243 | 35.19387 | 29174 ft | 492 kts | 101° |
| 2026-04-11 03:07 | 42.16949 | 35.28443 | 29173 ft | 492 kts | 101° |
| 2026-04-11 03:07 | 42.15658 | 35.37436 | 29169 ft | 492 kts | 101° |
| 2026-04-11 03:08 | 42.13698 | 35.50999 | 29159 ft | 491 kts | 101° |
| 2026-04-11 03:08 | 42.12386 | 35.60043 | 29158 ft | 491 kts | 101° |
| 2026-04-11 03:09 | 42.11070 | 35.69070 | 29158 ft | 491 kts | 102° |
| 2026-04-11 03:09 | 42.09748 | 35.78082 | 29157 ft | 491 kts | 102° |
| 2026-04-11 03:10 | 42.08417 | 35.87105 | 29158 ft | 491 kts | 102° |
| 2026-04-11 03:10 | 42.07087 | 35.96066 | 29159 ft | 492 kts | 102° |
| 2026-04-11 03:11 | 42.05739 | 36.05096 | 29158 ft | 492 kts | 102° |
| 2026-04-11 03:11 | 42.04382 | 36.14138 | 29156 ft | 494 kts | 103° |
| 2026-04-11 03:12 | 42.03015 | 36.23193 | 29159 ft | 495 kts | 103° |
| 2026-04-11 03:12 | 42.01637 | 36.32272 | 29157 ft | 496 kts | 103° |
| 2026-04-11 03:13 | 42.00247 | 36.41374 | 29155 ft | 497 kts | 104° |
| 2026-04-11 03:13 | 41.98858 | 36.50427 | 29158 ft | 498 kts | 104° |
| 2026-04-11 03:14 | 41.97447 | 36.59570 | 29152 ft | 499 kts | 104° |
| 2026-04-11 03:14 | 41.96028 | 36.68713 | 29149 ft | 500 kts | 104° |
| 2026-04-11 03:15 | 41.94599 | 36.77868 | 29153 ft | 501 kts | 105° |
| 2026-04-11 03:15 | 41.93162 | 36.87030 | 29149 ft | 501 kts | 105° |
| 2026-04-11 03:16 | 41.91727 | 36.96130 | 29151 ft | 502 kts | 105° |
| 2026-04-11 03:16 | 41.90126 | 37.05240 | 29140 ft | 499 kts | 111° |
| 2026-04-11 03:17 | 41.87560 | 37.13844 | 29149 ft | 496 kts | 117° |
| 2026-04-11 03:17 | 41.84817 | 37.22345 | 29152 ft | 497 kts | 117° |
| 2026-04-11 03:18 | 41.82103 | 37.30885 | 29148 ft | 497 kts | 117° |
| 2026-04-11 03:18 | 41.79424 | 37.39374 | 29150 ft | 498 kts | 117° |
| 2026-04-11 03:19 | 41.76720 | 37.47916 | 29146 ft | 497 kts | 117° |
| 2026-04-11 03:19 | 41.74013 | 37.56436 | 29147 ft | 497 kts | 118° |
| 2026-04-11 03:20 | 41.71301 | 37.64944 | 29146 ft | 496 kts | 118° |
| 2026-04-11 03:20 | 41.68579 | 37.73434 | 29151 ft | 496 kts | 118° |
| 2026-04-11 03:21 | 41.65871 | 37.81840 | 29151 ft | 495 kts | 119° |
| 2026-04-11 03:21 | 41.63143 | 37.90288 | 29138 ft | 494 kts | 119° |
| 2026-04-11 03:22 | 41.60413 | 37.98718 | 29145 ft | 494 kts | 120° |
| 2026-04-11 03:22 | 41.57676 | 38.07149 | 29139 ft | 493 kts | 120° |
| 2026-04-11 03:23 | 41.54940 | 38.15546 | 29141 ft | 493 kts | 120° |
| 2026-04-11 03:23 | 41.52216 | 38.23882 | 29139 ft | 493 kts | 121° |
| 2026-04-11 03:24 | 41.49468 | 38.32267 | 29142 ft | 493 kts | 121° |
| 2026-04-11 03:24 | 41.46711 | 38.40652 | 29138 ft | 494 kts | 121° |
| 2026-04-11 03:25 | 41.43944 | 38.49044 | 29134 ft | 494 kts | 121° |
| 2026-04-11 03:25 | 41.41187 | 38.57380 | 29136 ft | 494 kts | 122° |
| 2026-04-11 03:26 | 41.38404 | 38.65768 | 29151 ft | 494 kts | 122° |
| 2026-04-11 03:26 | 41.35619 | 38.74144 | 29142 ft | 495 kts | 122° |
| 2026-04-11 03:27 | 41.32848 | 38.82474 | 29140 ft | 495 kts | 122° |
| 2026-04-11 03:27 | 41.30097 | 38.90879 | 29136 ft | 495 kts | 122° |
| 2026-04-11 03:28 | 41.27346 | 38.99281 | 29134 ft | 495 kts | 123° |
| 2026-04-11 03:28 | 41.24584 | 39.07669 | 29146 ft | 495 kts | 123° |
| 2026-04-11 03:29 | 41.21817 | 39.16040 | 29146 ft | 495 kts | 123° |
| 2026-04-11 03:29 | 41.19001 | 39.24295 | 29142 ft | 493 kts | 124° |
| 2026-04-11 03:30 | 41.16098 | 39.32533 | 29144 ft | 492 kts | 125° |
| 2026-04-11 03:30 | 41.13197 | 39.40773 | 29144 ft | 493 kts | 125° |
| 2026-04-11 03:31 | 41.10304 | 39.49012 | 29145 ft | 493 kts | 124° |
| 2026-04-11 03:31 | 41.07405 | 39.57252 | 29145 ft | 494 kts | 125° |
| 2026-04-11 03:32 | 41.04512 | 39.65451 | 29156 ft | 495 kts | 125° |
| 2026-04-11 03:32 | 41.01595 | 39.73737 | 29147 ft | 498 kts | 123° |
| 2026-04-11 03:33 | 41.00404 | 39.78096 | 29146 ft | 509 kts | 115° |
| 2026-04-11 03:33 | 40.99596 | 39.82704 | 29155 ft | 518 kts | 109° |
| 2026-04-11 03:33 | 40.99050 | 39.92362 | 29165 ft | 531 kts | 99° |
| 2026-04-11 03:34 | 40.98935 | 40.02096 | 29149 ft | 532 kts | 99° |
| 2026-04-11 03:34 | 40.98727 | 40.11872 | 29146 ft | 531 kts | 100° |
| 2026-04-11 03:35 | 40.98468 | 40.21632 | 29141 ft | 530 kts | 100° |
| 2026-04-11 03:35 | 40.98206 | 40.31377 | 29131 ft | 529 kts | 100° |
| 2026-04-11 03:36 | 40.97939 | 40.41115 | 29134 ft | 529 kts | 100° |
| 2026-04-11 03:36 | 40.97629 | 40.50767 | 29115 ft | 528 kts | 100° |
| 2026-04-11 03:37 | 40.97363 | 40.60467 | 29129 ft | 527 kts | 100° |
| 2026-04-11 03:37 | 40.97089 | 40.70159 | 29138 ft | 527 kts | 100° |
| 2026-04-11 03:38 | 40.96792 | 40.79842 | 29124 ft | 526 kts | 100° |
| 2026-04-11 03:38 | 40.96485 | 40.89517 | 29125 ft | 524 kts | 100° |
| 2026-04-11 03:39 | 40.96164 | 40.99130 | 29133 ft | 523 kts | 100° |
| 2026-04-11 03:39 | 40.95839 | 41.08697 | 29101 ft | 524 kts | 100° |
| 2026-04-11 03:40 | 40.95503 | 41.18364 | 29076 ft | 525 kts | 100° |
| 2026-04-11 03:40 | 40.95137 | 41.28021 | 29117 ft | 527 kts | 100° |
| 2026-04-11 03:41 | 40.94801 | 41.37689 | 29110 ft | 525 kts | 100° |
| 2026-04-11 03:41 | 40.94450 | 41.47265 | 29114 ft | 524 kts | 99° |
| 2026-04-11 03:42 | 40.94084 | 41.56886 | 29080 ft | 524 kts | 99° |
| 2026-04-11 03:42 | 40.93713 | 41.66507 | 29121 ft | 524 kts | 99° |
| 2026-04-11 03:43 | 40.93331 | 41.76126 | 29094 ft | 524 kts | 99° |
| 2026-04-11 03:43 | 40.92944 | 41.85690 | 29113 ft | 523 kts | 99° |
| 2026-04-11 03:44 | 40.92544 | 41.95287 | 29079 ft | 522 kts | 99° |
| 2026-04-11 03:44 | 40.92142 | 42.04854 | 29179 ft | 523 kts | 99° |
| 2026-04-11 03:45 | 40.91937 | 42.09661 | 29577 ft | 522 kts | 99° |
| 2026-04-11 03:45 | 40.91730 | 42.14449 | 30085 ft | 520 kts | 99° |
| 2026-04-11 03:45 | 40.91524 | 42.19205 | 30460 ft | 518 kts | 99° |
| 2026-04-11 03:45 | 40.91314 | 42.23957 | 30821 ft | 517 kts | 99° |
| 2026-04-11 03:46 | 40.91102 | 42.28708 | 31003 ft | 517 kts | 99° |
| 2026-04-11 03:46 | 40.90887 | 42.33460 | 31028 ft | 518 kts | 99° |
| 2026-04-11 03:46 | 40.90456 | 42.42896 | 31044 ft | 516 kts | 99° |
| 2026-04-11 03:47 | 40.90018 | 42.52356 | 31038 ft | 514 kts | 99° |
| 2026-04-11 03:47 | 40.89574 | 42.61784 | 31035 ft | 513 kts | 99° |
| 2026-04-11 03:48 | 40.89123 | 42.71182 | 31042 ft | 513 kts | 99° |
| 2026-04-11 03:48 | 40.88663 | 42.80594 | 31036 ft | 513 kts | 99° |
| 2026-04-11 03:49 | 40.88195 | 42.90000 | 31038 ft | 513 kts | 99° |
| 2026-04-11 03:49 | 40.87724 | 42.99349 | 31034 ft | 513 kts | 99° |
| 2026-04-11 03:50 | 40.87240 | 43.08769 | 31037 ft | 514 kts | 99° |
| 2026-04-11 03:50 | 40.86750 | 43.18189 | 31021 ft | 514 kts | 99° |
| 2026-04-11 03:51 | 40.86252 | 43.27620 | 31024 ft | 514 kts | 99° |
| 2026-04-11 03:51 | 40.85748 | 43.36989 | 31045 ft | 514 kts | 99° |
| 2026-04-11 03:52 | 40.85234 | 43.46414 | 31048 ft | 514 kts | 99° |
| 2026-04-11 03:52 | 40.84712 | 43.55835 | 31047 ft | 514 kts | 99° |
| 2026-04-11 03:53 | 40.84185 | 43.65261 | 31048 ft | 514 kts | 99° |
| 2026-04-11 03:53 | 40.83745 | 43.74642 | 31041 ft | 516 kts | 97° |
| 2026-04-11 03:54 | 40.83471 | 43.84114 | 31041 ft | 516 kts | 97° |
| 2026-04-11 03:54 | 40.83164 | 43.93573 | 31045 ft | 515 kts | 97° |
| 2026-04-11 03:55 | 40.82843 | 44.03030 | 31042 ft | 515 kts | 97° |
| 2026-04-11 03:55 | 40.82516 | 44.12480 | 31041 ft | 514 kts | 97° |
| 2026-04-11 03:56 | 40.82185 | 44.21899 | 31041 ft | 513 kts | 97° |
| 2026-04-11 03:56 | 40.81848 | 44.31256 | 31061 ft | 512 kts | 97° |
| 2026-04-11 03:57 | 40.81503 | 44.40653 | 31060 ft | 511 kts | 97° |
| 2026-04-11 03:57 | 40.81150 | 44.50015 | 31051 ft | 510 kts | 96° |
| 2026-04-11 03:58 | 40.80792 | 44.59359 | 31061 ft | 509 kts | 96° |
| 2026-04-11 03:58 | 40.80423 | 44.68684 | 31047 ft | 508 kts | 96° |
| 2026-04-11 03:59 | 40.80047 | 44.77974 | 31065 ft | 507 kts | 96° |
| 2026-04-11 03:59 | 40.79671 | 44.87212 | 31053 ft | 507 kts | 96° |
| 2026-04-11 04:00 | 40.79285 | 44.96505 | 31052 ft | 507 kts | 96° |
| 2026-04-11 04:00 | 40.78890 | 45.05828 | 31043 ft | 508 kts | 96° |
| 2026-04-11 04:01 | 40.78487 | 45.15143 | 31044 ft | 508 kts | 97° |
| 2026-04-11 04:01 | 40.78143 | 45.22877 | 31043 ft | 508 kts | 96° |
| 2026-04-11 04:02 | 40.77727 | 45.32177 | 31039 ft | 507 kts | 96° |
| 2026-04-11 04:02 | 40.77306 | 45.41467 | 31046 ft | 506 kts | 97° |
| 2026-04-11 04:03 | 40.77034 | 45.50743 | 31037 ft | 508 kts | 91° |
| 2026-04-11 04:03 | 40.77809 | 45.59973 | 31034 ft | 509 kts | 84° |
| 2026-04-11 04:04 | 40.78834 | 45.69224 | 31054 ft | 508 kts | 84° |
| 2026-04-11 04:04 | 40.79815 | 45.78467 | 31052 ft | 509 kts | 85° |
| 2026-04-11 04:05 | 40.80757 | 45.87722 | 31051 ft | 509 kts | 85° |
| 2026-04-11 04:05 | 40.81679 | 45.96925 | 31059 ft | 508 kts | 85° |
| 2026-04-11 04:06 | 40.82601 | 46.06184 | 31066 ft | 508 kts | 85° |
| 2026-04-11 04:06 | 40.83519 | 46.15459 | 31067 ft | 509 kts | 85° |
| 2026-04-11 04:07 | 40.84428 | 46.24719 | 31069 ft | 509 kts | 85° |
| 2026-04-11 04:07 | 40.85331 | 46.33991 | 31077 ft | 509 kts | 85° |
| 2026-04-11 04:08 | 40.86221 | 46.43211 | 31071 ft | 509 kts | 85° |
| 2026-04-11 04:08 | 40.87109 | 46.52489 | 31072 ft | 509 kts | 85° |
| 2026-04-11 04:09 | 40.87990 | 46.61781 | 31074 ft | 509 kts | 85° |
| 2026-04-11 04:09 | 40.88865 | 46.71081 | 31081 ft | 510 kts | 85° |
| 2026-04-11 04:10 | 40.89736 | 46.80382 | 31082 ft | 510 kts | 85° |
| 2026-04-11 04:10 | 40.91173 | 46.89577 | 31088 ft | 511 kts | 78° |
| 2026-04-11 04:11 | 40.92916 | 46.98647 | 31086 ft | 512 kts | 78° |
| 2026-04-11 04:11 | 40.94646 | 47.07770 | 31092 ft | 511 kts | 78° |
| 2026-04-11 04:12 | 40.96338 | 47.16917 | 31094 ft | 511 kts | 78° |
| 2026-04-11 04:12 | 40.98008 | 47.26058 | 31088 ft | 512 kts | 79° |
| 2026-04-11 04:13 | 40.99666 | 47.35165 | 31086 ft | 511 kts | 79° |
| 2026-04-11 04:13 | 41.01326 | 47.44317 | 31082 ft | 511 kts | 79° |
| 2026-04-11 04:14 | 41.02982 | 47.53491 | 31078 ft | 511 kts | 79° |
| 2026-04-11 04:14 | 41.04628 | 47.62658 | 31074 ft | 511 kts | 79° |
| 2026-04-11 04:15 | 41.07070 | 47.76340 | 31066 ft | 510 kts | 79° |
| 2026-04-11 04:16 | 41.08693 | 47.85486 | 31052 ft | 509 kts | 79° |
| 2026-04-11 04:16 | 41.10307 | 47.94617 | 31044 ft | 508 kts | 79° |
| 2026-04-11 04:17 | 41.12351 | 48.03581 | 31042 ft | 508 kts | 71° |
| 2026-04-11 04:17 | 41.14852 | 48.12343 | 31031 ft | 507 kts | 71° |
| 2026-04-11 04:18 | 41.17337 | 48.21096 | 31044 ft | 506 kts | 71° |
| 2026-04-11 04:18 | 41.19779 | 48.29867 | 31049 ft | 506 kts | 72° |
| 2026-04-11 04:19 | 41.22187 | 48.38599 | 31053 ft | 507 kts | 72° |
| 2026-04-11 04:19 | 41.24608 | 48.47409 | 31088 ft | 508 kts | 72° |
| 2026-04-11 04:20 | 41.27035 | 48.56259 | 31084 ft | 510 kts | 72° |
| 2026-04-11 04:20 | 41.29460 | 48.65137 | 31103 ft | 511 kts | 72° |
| 2026-04-11 04:21 | 41.31886 | 48.74043 | 31096 ft | 513 kts | 72° |
| 2026-04-11 04:21 | 41.34309 | 48.82974 | 31094 ft | 513 kts | 72° |
| 2026-04-11 04:22 | 41.36714 | 48.91868 | 31089 ft | 514 kts | 72° |
| 2026-04-11 04:22 | 41.39126 | 49.00838 | 31095 ft | 514 kts | 72° |
| 2026-04-11 04:23 | 41.41527 | 49.09811 | 31083 ft | 514 kts | 73° |
| 2026-04-11 04:23 | 41.43921 | 49.18786 | 31084 ft | 514 kts | 73° |
| 2026-04-11 04:24 | 41.46310 | 49.27777 | 31087 ft | 514 kts | 73° |
| 2026-04-11 04:24 | 41.48671 | 49.36691 | 31084 ft | 513 kts | 73° |
| 2026-04-11 04:25 | 41.51041 | 49.45673 | 31080 ft | 513 kts | 73° |
| 2026-04-11 04:25 | 41.53403 | 49.54658 | 31075 ft | 513 kts | 73° |
| 2026-04-11 04:26 | 41.55759 | 49.63654 | 31076 ft | 513 kts | 73° |
| 2026-04-11 04:26 | 41.58108 | 49.72655 | 31075 ft | 513 kts | 73° |
| 2026-04-11 04:27 | 41.60449 | 49.81660 | 31072 ft | 513 kts | 73° |
| 2026-04-11 04:27 | 41.62787 | 49.90685 | 31071 ft | 513 kts | 73° |
| 2026-04-11 04:28 | 41.65102 | 49.99657 | 31069 ft | 514 kts | 73° |
| 2026-04-11 04:28 | 41.67426 | 50.08698 | 31065 ft | 514 kts | 73° |
| 2026-04-11 04:29 | 41.69744 | 50.17747 | 31063 ft | 514 kts | 73° |
| 2026-04-11 04:29 | 41.72055 | 50.26805 | 31062 ft | 515 kts | 73° |
| 2026-04-11 04:30 | 41.74363 | 50.35886 | 31060 ft | 515 kts | 73° |
| 2026-04-11 04:30 | 41.76648 | 50.44909 | 31059 ft | 515 kts | 73° |
| 2026-04-11 04:31 | 41.78942 | 50.54004 | 31057 ft | 515 kts | 74° |
| 2026-04-11 04:31 | 41.81231 | 50.63114 | 31057 ft | 516 kts | 74° |
| 2026-04-11 04:32 | 41.83518 | 50.72251 | 31053 ft | 516 kts | 74° |
| 2026-04-11 04:32 | 41.85795 | 50.81383 | 31057 ft | 516 kts | 74° |
| 2026-04-11 04:33 | 41.88066 | 50.90530 | 31060 ft | 517 kts | 74° |
| 2026-04-11 04:33 | 41.90317 | 50.99630 | 31055 ft | 517 kts | 74° |
| 2026-04-11 04:34 | 41.92575 | 51.08793 | 31054 ft | 517 kts | 74° |
| 2026-04-11 04:34 | 41.94825 | 51.17955 | 31036 ft | 515 kts | 74° |
| 2026-04-11 04:35 | 41.97059 | 51.27095 | 31045 ft | 513 kts | 74° |
| 2026-04-11 04:35 | 41.99278 | 51.36208 | 31049 ft | 512 kts | 74° |
| 2026-04-11 04:36 | 42.01688 | 51.45235 | 31049 ft | 513 kts | 68° |
| 2026-04-11 04:36 | 42.05137 | 51.53589 | 31052 ft | 515 kts | 58° |
| 2026-04-11 04:37 | 42.09104 | 51.61637 | 31054 ft | 516 kts | 57° |
| 2026-04-11 04:37 | 42.13067 | 51.69699 | 31044 ft | 516 kts | 58° |
| 2026-04-11 04:38 | 42.16997 | 51.77811 | 31062 ft | 517 kts | 58° |
| 2026-04-11 04:38 | 42.20906 | 51.85951 | 31052 ft | 517 kts | 58° |
| 2026-04-11 04:39 | 42.24786 | 51.94055 | 31038 ft | 517 kts | 58° |
| 2026-04-11 04:39 | 42.28682 | 52.02210 | 31051 ft | 517 kts | 58° |
| 2026-04-11 04:40 | 42.32581 | 52.10392 | 31053 ft | 519 kts | 58° |
| 2026-04-11 04:40 | 42.36486 | 52.18606 | 31049 ft | 520 kts | 58° |
| 2026-04-11 04:41 | 42.40388 | 52.26836 | 31046 ft | 520 kts | 58° |
| 2026-04-11 04:41 | 42.44299 | 52.35109 | 31049 ft | 521 kts | 58° |
| 2026-04-11 04:42 | 42.48192 | 52.43366 | 31004 ft | 517 kts | 58° |
| 2026-04-11 04:42 | 42.52003 | 52.51470 | 31045 ft | 512 kts | 58° |
| 2026-04-11 04:43 | 42.55822 | 52.59618 | 31044 ft | 512 kts | 58° |
| 2026-04-11 04:43 | 42.59643 | 52.67789 | 31044 ft | 513 kts | 59° |
| 2026-04-11 04:44 | 42.63460 | 52.75975 | 31044 ft | 513 kts | 59° |
| 2026-04-11 04:44 | 42.67276 | 52.84181 | 31039 ft | 514 kts | 59° |
| 2026-04-11 04:45 | 42.71091 | 52.92408 | 31035 ft | 514 kts | 59° |
| 2026-04-11 04:45 | 42.74897 | 53.00638 | 31033 ft | 514 kts | 59° |
| 2026-04-11 04:46 | 42.78700 | 53.08886 | 31037 ft | 514 kts | 59° |
| 2026-04-11 04:46 | 42.82465 | 53.17073 | 31036 ft | 513 kts | 59° |
| 2026-04-11 04:47 | 42.86245 | 53.25315 | 31042 ft | 513 kts | 59° |
| 2026-04-11 04:47 | 42.90022 | 53.33574 | 31040 ft | 512 kts | 59° |
| 2026-04-11 04:48 | 42.93788 | 53.41833 | 31039 ft | 512 kts | 59° |
| 2026-04-11 04:48 | 42.97547 | 53.50096 | 31043 ft | 512 kts | 59° |
| 2026-04-11 04:49 | 43.00689 | 53.58765 | 31035 ft | 508 kts | 73° |
| 2026-04-11 04:49 | 43.02195 | 53.68138 | 31043 ft | 503 kts | 87° |
| 2026-04-11 04:50 | 43.02784 | 53.77659 | 31049 ft | 503 kts | 88° |
| 2026-04-11 04:50 | 43.03355 | 53.87154 | 31046 ft | 504 kts | 88° |
| 2026-04-11 04:51 | 43.03967 | 53.96703 | 31046 ft | 505 kts | 87° |
| 2026-04-11 04:51 | 43.04596 | 54.06269 | 31046 ft | 506 kts | 87° |
| 2026-04-11 04:52 | 43.05222 | 54.15857 | 31049 ft | 506 kts | 87° |
| 2026-04-11 04:52 | 43.05839 | 54.25446 | 31049 ft | 506 kts | 87° |
| 2026-04-11 04:53 | 43.06446 | 54.35046 | 31051 ft | 506 kts | 87° |
| 2026-04-11 04:53 | 43.07043 | 54.44643 | 31052 ft | 506 kts | 88° |
| 2026-04-11 04:54 | 43.07634 | 54.54248 | 31051 ft | 506 kts | 88° |
| 2026-04-11 04:54 | 43.08118 | 54.62226 | 31055 ft | 506 kts | 88° |
| 2026-04-11 04:55 | 43.08787 | 54.73391 | 31055 ft | 506 kts | 88° |
| 2026-04-11 04:55 | 43.09353 | 54.82994 | 31065 ft | 507 kts | 88° |
| 2026-04-11 04:56 | 43.09818 | 54.90980 | 31069 ft | 507 kts | 88° |
| 2026-04-11 04:56 | 43.10369 | 55.00591 | 31062 ft | 507 kts | 88° |
| 2026-04-11 04:57 | 43.10914 | 55.10220 | 31067 ft | 507 kts | 88° |
| 2026-04-11 04:57 | 43.11450 | 55.19832 | 31070 ft | 507 kts | 88° |
| 2026-04-11 04:58 | 43.11977 | 55.29452 | 31084 ft | 507 kts | 88° |
| 2026-04-11 04:58 | 43.12497 | 55.39068 | 31077 ft | 507 kts | 88° |
| 2026-04-11 04:59 | 43.13006 | 55.48634 | 31077 ft | 507 kts | 88° |
| 2026-04-11 04:59 | 43.13509 | 55.58259 | 31077 ft | 507 kts | 88° |
| 2026-04-11 05:00 | 43.14005 | 55.67892 | 31086 ft | 507 kts | 88° |
| 2026-04-11 05:00 | 43.14494 | 55.77531 | 31093 ft | 507 kts | 88° |
| 2026-04-11 05:01 | 43.14975 | 55.87176 | 31092 ft | 508 kts | 88° |
| 2026-04-11 05:01 | 43.15465 | 55.96754 | 31083 ft | 508 kts | 86° |
| 2026-04-11 05:02 | 43.16803 | 56.06273 | 31100 ft | 511 kts | 75° |
| 2026-04-11 05:02 | 43.18831 | 56.15597 | 31101 ft | 511 kts | 75° |
| 2026-04-11 05:03 | 43.20856 | 56.24936 | 31108 ft | 511 kts | 75° |
| 2026-04-11 05:03 | 43.22837 | 56.34296 | 31102 ft | 511 kts | 75° |
| 2026-04-11 05:04 | 43.24795 | 56.43682 | 31098 ft | 511 kts | 75° |
| 2026-04-11 05:04 | 43.26741 | 56.53063 | 31110 ft | 511 kts | 75° |
| 2026-04-11 05:05 | 43.29634 | 56.67077 | 31114 ft | 511 kts | 75° |
| 2026-04-11 05:05 | 43.31565 | 56.76473 | 31110 ft | 511 kts | 75° |
| 2026-04-11 05:06 | 43.33484 | 56.85857 | 31117 ft | 510 kts | 75° |
| 2026-04-11 05:06 | 43.35392 | 56.95236 | 31115 ft | 509 kts | 76° |
| 2026-04-11 05:07 | 43.37291 | 57.04607 | 31120 ft | 509 kts | 76° |
| 2026-04-11 05:07 | 43.39179 | 57.13973 | 31121 ft | 508 kts | 76° |
| 2026-04-11 05:08 | 43.41061 | 57.23349 | 31120 ft | 508 kts | 76° |
| 2026-04-11 05:08 | 43.42924 | 57.32675 | 31126 ft | 508 kts | 76° |
| 2026-04-11 05:09 | 43.44788 | 57.42052 | 31128 ft | 508 kts | 76° |
| 2026-04-11 05:09 | 43.46643 | 57.51426 | 31128 ft | 507 kts | 76° |
| 2026-04-11 05:10 | 43.48489 | 57.60799 | 31132 ft | 507 kts | 76° |
| 2026-04-11 05:10 | 43.50323 | 57.70157 | 31136 ft | 506 kts | 76° |
| 2026-04-11 05:11 | 43.52154 | 57.79542 | 31139 ft | 506 kts | 76° |
| 2026-04-11 05:11 | 43.53959 | 57.88840 | 31144 ft | 505 kts | 76° |
| 2026-04-11 05:12 | 43.55769 | 57.98208 | 31141 ft | 505 kts | 76° |
| 2026-04-11 05:12 | 43.57570 | 58.07575 | 31147 ft | 505 kts | 76° |
| 2026-04-11 05:13 | 43.59360 | 58.16932 | 31151 ft | 505 kts | 76° |
| 2026-04-11 05:13 | 43.61144 | 58.26300 | 31152 ft | 504 kts | 76° |
| 2026-04-11 05:14 | 43.62921 | 58.35674 | 31157 ft | 504 kts | 76° |
| 2026-04-11 05:14 | 43.64650 | 58.44991 | 31154 ft | 504 kts | 77° |
| 2026-04-11 05:15 | 43.66359 | 58.54384 | 31158 ft | 504 kts | 77° |
| 2026-04-11 05:15 | 43.68066 | 58.63785 | 31159 ft | 504 kts | 77° |
| 2026-04-11 05:16 | 43.69770 | 58.73196 | 31162 ft | 504 kts | 77° |
| 2026-04-11 05:16 | 43.71466 | 58.82604 | 31161 ft | 504 kts | 77° |
| 2026-04-11 05:17 | 43.73155 | 58.92027 | 31167 ft | 505 kts | 77° |
| 2026-04-11 05:17 | 43.74827 | 59.01391 | 31163 ft | 505 kts | 77° |
| 2026-04-11 05:18 | 43.76525 | 59.10810 | 31169 ft | 505 kts | 77° |
| 2026-04-11 05:18 | 43.78256 | 59.20226 | 31168 ft | 505 kts | 77° |
| 2026-04-11 05:19 | 43.79979 | 59.29656 | 31168 ft | 505 kts | 77° |
| 2026-04-11 05:19 | 43.81687 | 59.39088 | 31172 ft | 505 kts | 77° |
| 2026-04-11 05:20 | 43.83386 | 59.48532 | 31166 ft | 505 kts | 77° |
| 2026-04-11 05:20 | 43.85077 | 59.57975 | 31172 ft | 505 kts | 77° |
| 2026-04-11 05:21 | 43.86751 | 59.67364 | 31173 ft | 504 kts | 77° |
| 2026-04-11 05:21 | 43.88410 | 59.76813 | 31175 ft | 504 kts | 77° |
| 2026-04-11 05:22 | 43.90030 | 59.86266 | 31182 ft | 504 kts | 78° |
| 2026-04-11 05:22 | 43.91642 | 59.95731 | 31179 ft | 504 kts | 78° |
| 2026-04-11 05:23 | 43.93250 | 60.05195 | 31183 ft | 504 kts | 78° |
| 2026-04-11 05:23 | 43.94850 | 60.14654 | 31181 ft | 504 kts | 78° |
| 2026-04-11 05:24 | 43.96444 | 60.24119 | 31184 ft | 503 kts | 78° |
| 2026-04-11 05:24 | 43.98030 | 60.33595 | 31190 ft | 503 kts | 78° |
| 2026-04-11 05:25 | 43.99598 | 60.43010 | 31186 ft | 503 kts | 78° |
| 2026-04-11 05:25 | 44.01175 | 60.52538 | 31191 ft | 503 kts | 78° |
| 2026-04-11 05:26 | 44.02725 | 60.61949 | 31193 ft | 502 kts | 78° |
| 2026-04-11 05:26 | 44.04274 | 60.71411 | 31194 ft | 502 kts | 78° |
| 2026-04-11 05:27 | 44.05816 | 60.80882 | 31195 ft | 502 kts | 78° |
| 2026-04-11 05:27 | 44.07350 | 60.90357 | 31196 ft | 502 kts | 78° |
| 2026-04-11 05:28 | 44.08875 | 60.99829 | 31200 ft | 502 kts | 79° |
| 2026-04-11 05:28 | 44.10393 | 61.09310 | 31201 ft | 502 kts | 79° |
| 2026-04-11 05:29 | 44.11901 | 61.18788 | 31202 ft | 502 kts | 79° |
| 2026-04-11 05:29 | 44.13396 | 61.28224 | 31208 ft | 502 kts | 79° |
| 2026-04-11 05:30 | 44.14410 | 61.37276 | 31198 ft | 500 kts | 88° |
| 2026-04-11 05:30 | 44.14762 | 61.46931 | 31213 ft | 499 kts | 89° |
| 2026-04-11 05:31 | 44.15138 | 61.56515 | 31210 ft | 500 kts | 88° |
| 2026-04-11 05:31 | 44.15537 | 61.65712 | 31211 ft | 500 kts | 88° |
| 2026-04-11 05:32 | 44.15908 | 61.74215 | 31216 ft | 500 kts | 88° |
| 2026-04-11 05:32 | 44.16323 | 61.83890 | 31214 ft | 501 kts | 88° |
| 2026-04-11 05:33 | 44.16729 | 61.93566 | 31219 ft | 501 kts | 88° |
| 2026-04-11 05:33 | 44.17126 | 62.03256 | 31220 ft | 500 kts | 88° |
| 2026-04-11 05:34 | 44.17515 | 62.12926 | 31221 ft | 500 kts | 88° |
| 2026-04-11 05:34 | 44.17896 | 62.22609 | 31230 ft | 500 kts | 88° |
| 2026-04-11 05:35 | 44.18265 | 62.32211 | 31223 ft | 500 kts | 88° |
| 2026-04-11 05:35 | 44.18601 | 62.41888 | 31223 ft | 499 kts | 88° |
| 2026-04-11 05:36 | 44.18919 | 62.51550 | 31228 ft | 499 kts | 88° |
| 2026-04-11 05:36 | 44.19232 | 62.61224 | 31227 ft | 499 kts | 88° |
| 2026-04-11 05:37 | 44.19541 | 62.70888 | 31230 ft | 499 kts | 88° |
| 2026-04-11 05:37 | 44.19841 | 62.80552 | 31234 ft | 499 kts | 88° |
| 2026-04-11 05:38 | 44.20133 | 62.90215 | 31236 ft | 499 kts | 88° |
| 2026-04-11 05:38 | 44.20417 | 62.99879 | 31236 ft | 499 kts | 88° |
| 2026-04-11 05:39 | 44.20693 | 63.09546 | 31238 ft | 499 kts | 88° |
| 2026-04-11 05:39 | 44.20954 | 63.19157 | 31240 ft | 499 kts | 89° |
| 2026-04-11 05:40 | 44.21099 | 63.28836 | 31244 ft | 499 kts | 90° |
| 2026-04-11 05:40 | 44.21197 | 63.38516 | 31244 ft | 499 kts | 90° |
| 2026-04-11 05:41 | 44.21301 | 63.48128 | 31248 ft | 499 kts | 89° |
| 2026-04-11 05:41 | 44.21409 | 63.57803 | 31244 ft | 498 kts | 89° |
| 2026-04-11 05:42 | 44.21512 | 63.67464 | 31248 ft | 498 kts | 89° |
| 2026-04-11 05:42 | 44.21604 | 63.77116 | 31243 ft | 498 kts | 89° |
| 2026-04-11 05:43 | 44.21688 | 63.86762 | 31246 ft | 498 kts | 89° |
| 2026-04-11 05:43 | 44.21763 | 63.96417 | 31250 ft | 497 kts | 89° |
| 2026-04-11 05:44 | 44.21831 | 64.06058 | 31248 ft | 497 kts | 90° |
| 2026-04-11 05:44 | 44.21883 | 64.14079 | 31251 ft | 497 kts | 90° |
| 2026-04-11 05:45 | 44.22203 | 64.25270 | 31247 ft | 497 kts | 86° |
| 2026-04-11 05:45 | 44.22673 | 64.34890 | 31251 ft | 497 kts | 86° |
| 2026-04-11 05:46 | 44.23052 | 64.42899 | 31248 ft | 497 kts | 86° |
| 2026-04-11 05:46 | 44.23475 | 64.52525 | 31251 ft | 498 kts | 86° |
| 2026-04-11 05:47 | 44.23882 | 64.62166 | 31252 ft | 498 kts | 86° |
| 2026-04-11 05:47 | 44.24283 | 64.71808 | 31252 ft | 498 kts | 86° |
| 2026-04-11 05:48 | 44.24678 | 64.81441 | 31249 ft | 498 kts | 86° |
| 2026-04-11 05:48 | 44.25053 | 64.91074 | 31250 ft | 497 kts | 87° |
| 2026-04-11 05:49 | 44.25409 | 65.00648 | 31248 ft | 497 kts | 87° |
| 2026-04-11 05:49 | 44.25760 | 65.10285 | 31253 ft | 497 kts | 87° |
| 2026-04-11 05:50 | 44.26105 | 65.19915 | 31248 ft | 497 kts | 87° |
| 2026-04-11 05:50 | 44.26442 | 65.29539 | 31248 ft | 497 kts | 87° |
| 2026-04-11 05:51 | 44.26771 | 65.39160 | 31247 ft | 497 kts | 87° |
| 2026-04-11 05:51 | 44.27090 | 65.48726 | 31248 ft | 497 kts | 87° |
| 2026-04-11 05:52 | 44.27403 | 65.58350 | 31247 ft | 496 kts | 87° |
| 2026-04-11 05:52 | 44.27707 | 65.67981 | 31243 ft | 496 kts | 87° |
| 2026-04-11 05:53 | 44.28004 | 65.77613 | 31247 ft | 496 kts | 87° |
| 2026-04-11 05:53 | 44.28291 | 65.87190 | 31242 ft | 496 kts | 87° |
| 2026-04-11 05:54 | 44.28572 | 65.96823 | 31247 ft | 496 kts | 87° |
| 2026-04-11 05:54 | 44.28844 | 66.06452 | 31244 ft | 496 kts | 87° |
| 2026-04-11 05:55 | 44.29108 | 66.16066 | 31245 ft | 496 kts | 87° |
| 2026-04-11 05:55 | 44.29363 | 66.25646 | 31246 ft | 496 kts | 87° |
| 2026-04-11 05:56 | 44.29612 | 66.35277 | 31248 ft | 496 kts | 87° |
| 2026-04-11 05:56 | 44.29846 | 66.44907 | 31245 ft | 496 kts | 88° |
| 2026-04-11 05:57 | 44.29945 | 66.54541 | 31243 ft | 496 kts | 88° |
| 2026-04-11 05:57 | 44.29991 | 66.64174 | 31237 ft | 496 kts | 88° |
| 2026-04-11 05:58 | 44.30045 | 66.73743 | 31239 ft | 496 kts | 88° |
| 2026-04-11 05:58 | 44.30104 | 66.83377 | 31237 ft | 496 kts | 88° |
| 2026-04-11 05:59 | 44.30156 | 66.93020 | 31241 ft | 496 kts | 88° |
| 2026-04-11 05:59 | 44.30200 | 67.02579 | 31246 ft | 496 kts | 88° |
| 2026-04-11 06:00 | 44.30237 | 67.12213 | 31246 ft | 495 kts | 88° |
| 2026-04-11 06:00 | 44.30265 | 67.21836 | 31249 ft | 495 kts | 88° |
| 2026-04-11 06:01 | 44.30285 | 67.31443 | 31255 ft | 494 kts | 88° |
| 2026-04-11 06:01 | 44.30296 | 67.40974 | 31260 ft | 494 kts | 88° |
| 2026-04-11 06:02 | 44.30301 | 67.50203 | 31258 ft | 494 kts | 88° |
| 2026-04-11 06:02 | 44.30624 | 67.59745 | 31264 ft | 491 kts | 84° |
| 2026-04-11 06:03 | 44.31172 | 67.69280 | 31270 ft | 492 kts | 84° |
| 2026-04-11 06:03 | 44.31706 | 67.78750 | 31272 ft | 493 kts | 84° |
| 2026-04-11 06:04 | 44.32215 | 67.88315 | 31271 ft | 493 kts | 84° |
| 2026-04-11 06:04 | 44.32706 | 67.97862 | 31279 ft | 493 kts | 84° |
| 2026-04-11 06:05 | 44.33190 | 68.07423 | 31276 ft | 493 kts | 85° |
| 2026-04-11 06:05 | 44.33662 | 68.16907 | 31275 ft | 492 kts | 85° |
| 2026-04-11 06:06 | 44.34361 | 68.31208 | 31281 ft | 491 kts | 85° |
| 2026-04-11 06:07 | 44.34816 | 68.40724 | 31277 ft | 490 kts | 85° |
| 2026-04-11 06:07 | 44.35262 | 68.50226 | 31276 ft | 490 kts | 85° |
| 2026-04-11 06:08 | 44.35700 | 68.59725 | 31279 ft | 490 kts | 85° |
| 2026-04-11 06:08 | 44.36130 | 68.69215 | 31282 ft | 489 kts | 85° |
| 2026-04-11 06:09 | 44.36550 | 68.78664 | 31278 ft | 490 kts | 85° |
| 2026-04-11 06:09 | 44.36966 | 68.88167 | 31273 ft | 490 kts | 85° |
| 2026-04-11 06:10 | 44.36890 | 68.97695 | 31285 ft | 490 kts | 92° |
| 2026-04-11 06:10 | 44.36377 | 69.07207 | 31275 ft | 491 kts | 93° |
| 2026-04-11 06:11 | 44.35861 | 69.16725 | 31271 ft | 491 kts | 93° |
| 2026-04-11 06:11 | 44.35374 | 69.26178 | 31272 ft | 491 kts | 93° |
| 2026-04-11 06:12 | 44.34887 | 69.35707 | 31274 ft | 491 kts | 93° |
| 2026-04-11 06:12 | 44.34395 | 69.45206 | 31276 ft | 490 kts | 93° |
| 2026-04-11 06:13 | 44.33893 | 69.54708 | 31271 ft | 490 kts | 93° |
| 2026-04-11 06:13 | 44.33384 | 69.64193 | 31266 ft | 489 kts | 93° |
| 2026-04-11 06:14 | 44.32870 | 69.73611 | 31268 ft | 489 kts | 93° |
| 2026-04-11 06:14 | 44.32345 | 69.83084 | 31268 ft | 489 kts | 93° |
| 2026-04-11 06:15 | 44.31813 | 69.92550 | 31268 ft | 489 kts | 93° |
| 2026-04-11 06:15 | 44.31274 | 70.02020 | 31264 ft | 489 kts | 93° |
| 2026-04-11 06:16 | 44.30729 | 70.11432 | 31264 ft | 489 kts | 93° |
| 2026-04-11 06:16 | 44.30173 | 70.20894 | 31263 ft | 489 kts | 93° |
| 2026-04-11 06:17 | 44.29611 | 70.30360 | 31267 ft | 489 kts | 93° |
| 2026-04-11 06:17 | 44.29041 | 70.39824 | 31263 ft | 489 kts | 93° |
| 2026-04-11 06:18 | 44.28468 | 70.49230 | 31259 ft | 489 kts | 93° |
| 2026-04-11 06:18 | 44.27886 | 70.58686 | 31263 ft | 489 kts | 93° |
| 2026-04-11 06:19 | 44.27296 | 70.68139 | 31257 ft | 489 kts | 93° |
| 2026-04-11 06:19 | 44.26697 | 70.77596 | 31254 ft | 489 kts | 94° |
| 2026-04-11 06:20 | 44.26091 | 70.87050 | 31256 ft | 488 kts | 94° |
| 2026-04-11 06:20 | 44.25478 | 70.96492 | 31255 ft | 488 kts | 94° |
| 2026-04-11 06:21 | 44.24862 | 71.05860 | 31253 ft | 488 kts | 94° |
| 2026-04-11 06:21 | 44.24234 | 71.15288 | 31254 ft | 488 kts | 94° |
| 2026-04-11 06:22 | 44.23597 | 71.24722 | 31249 ft | 488 kts | 94° |
| 2026-04-11 06:22 | 44.22956 | 71.34133 | 31251 ft | 487 kts | 94° |
| 2026-04-11 06:23 | 44.22313 | 71.43494 | 31251 ft | 487 kts | 94° |
| 2026-04-11 06:23 | 44.21679 | 71.52902 | 31252 ft | 487 kts | 94° |
| 2026-04-11 06:24 | 44.21041 | 71.62307 | 31245 ft | 487 kts | 94° |
| 2026-04-11 06:24 | 44.20394 | 71.71713 | 31243 ft | 486 kts | 94° |
| 2026-04-11 06:25 | 44.19743 | 71.81038 | 31245 ft | 486 kts | 94° |
| 2026-04-11 06:25 | 44.19080 | 71.90418 | 31244 ft | 486 kts | 94° |
| 2026-04-11 06:26 | 44.18410 | 71.99793 | 31239 ft | 486 kts | 94° |
| 2026-04-11 06:26 | 44.17732 | 72.09159 | 31243 ft | 486 kts | 94° |
| 2026-04-11 06:27 | 44.17052 | 72.18456 | 31243 ft | 485 kts | 94° |
| 2026-04-11 06:27 | 44.16359 | 72.27813 | 31236 ft | 485 kts | 94° |
| 2026-04-11 06:28 | 44.15660 | 72.37162 | 31239 ft | 485 kts | 94° |
| 2026-04-11 06:28 | 44.14954 | 72.46494 | 31235 ft | 485 kts | 94° |
| 2026-04-11 06:29 | 44.14240 | 72.55823 | 31235 ft | 484 kts | 95° |
| 2026-04-11 06:29 | 44.13520 | 72.65147 | 31231 ft | 484 kts | 95° |
| 2026-04-11 06:30 | 44.12792 | 72.74461 | 31230 ft | 484 kts | 95° |
| 2026-04-11 06:30 | 44.12062 | 72.83709 | 31227 ft | 483 kts | 95° |
| 2026-04-11 06:31 | 44.11321 | 72.93007 | 31222 ft | 483 kts | 95° |
| 2026-04-11 06:31 | 44.10569 | 73.02296 | 31228 ft | 483 kts | 95° |
| 2026-04-11 06:32 | 44.09800 | 73.11589 | 31220 ft | 483 kts | 95° |
| 2026-04-11 06:32 | 44.09023 | 73.20868 | 31223 ft | 483 kts | 95° |
| 2026-04-11 06:33 | 44.08241 | 73.30146 | 31221 ft | 483 kts | 95° |
| 2026-04-11 06:33 | 44.07457 | 73.39371 | 31214 ft | 483 kts | 95° |
| 2026-04-11 06:34 | 44.06661 | 73.48649 | 31216 ft | 483 kts | 96° |
| 2026-04-11 06:34 | 44.05855 | 73.57931 | 31213 ft | 483 kts | 96° |
| 2026-04-11 06:35 | 44.05045 | 73.67198 | 31208 ft | 483 kts | 96° |
| 2026-04-11 06:35 | 44.04227 | 73.76462 | 31206 ft | 483 kts | 96° |
| 2026-04-11 06:36 | 44.03401 | 73.85723 | 31207 ft | 482 kts | 96° |
| 2026-04-11 06:36 | 44.02567 | 73.94984 | 31208 ft | 482 kts | 96° |
| 2026-04-11 06:37 | 44.01733 | 74.04166 | 31207 ft | 482 kts | 96° |
| 2026-04-11 06:37 | 44.00886 | 74.13410 | 31210 ft | 482 kts | 96° |
| 2026-04-11 06:38 | 44.00032 | 74.22638 | 31212 ft | 481 kts | 96° |
| 2026-04-11 06:38 | 43.99171 | 74.31863 | 31212 ft | 482 kts | 96° |
| 2026-04-11 06:39 | 43.98304 | 74.41087 | 31211 ft | 482 kts | 97° |
| 2026-04-11 06:39 | 43.97427 | 74.50319 | 31214 ft | 482 kts | 97° |
| 2026-04-11 06:40 | 43.96602 | 74.59494 | 31212 ft | 482 kts | 96° |
| 2026-04-11 06:40 | 43.95808 | 74.68746 | 31215 ft | 482 kts | 96° |
| 2026-04-11 06:41 | 43.95004 | 74.77987 | 31212 ft | 482 kts | 96° |
| 2026-04-11 06:41 | 43.94184 | 74.87229 | 31216 ft | 482 kts | 97° |
| 2026-04-11 06:42 | 43.93354 | 74.96467 | 31215 ft | 482 kts | 97° |
| 2026-04-11 06:42 | 43.92658 | 75.04143 | 31213 ft | 482 kts | 97° |
| 2026-04-11 06:43 | 43.91677 | 75.14871 | 31211 ft | 482 kts | 97° |
| 2026-04-11 06:43 | 43.90826 | 75.24089 | 31214 ft | 482 kts | 97° |
| 2026-04-11 06:44 | 43.90112 | 75.31763 | 31214 ft | 482 kts | 97° |
| 2026-04-11 06:44 | 43.89248 | 75.40977 | 31213 ft | 482 kts | 97° |
| 2026-04-11 06:45 | 43.88376 | 75.50183 | 31209 ft | 481 kts | 98° |
| 2026-04-11 06:45 | 43.87497 | 75.59388 | 31212 ft | 481 kts | 98° |
| 2026-04-11 06:46 | 43.86613 | 75.68576 | 31209 ft | 481 kts | 98° |
| 2026-04-11 06:46 | 43.85719 | 75.77772 | 31210 ft | 481 kts | 98° |
| 2026-04-11 06:47 | 43.84820 | 75.86953 | 31209 ft | 481 kts | 98° |
| 2026-04-11 06:47 | 43.83913 | 75.96143 | 31208 ft | 481 kts | 98° |
| 2026-04-11 06:48 | 43.82960 | 76.05325 | 31205 ft | 482 kts | 100° |
| 2026-04-11 06:48 | 43.81876 | 76.14430 | 31207 ft | 482 kts | 100° |
| 2026-04-11 06:49 | 43.80763 | 76.23596 | 31208 ft | 483 kts | 100° |
| 2026-04-11 06:49 | 43.79658 | 76.32790 | 31209 ft | 484 kts | 100° |
| 2026-04-11 06:50 | 43.78554 | 76.41989 | 31207 ft | 484 kts | 100° |
| 2026-04-11 06:50 | 43.77445 | 76.51186 | 31201 ft | 485 kts | 101° |
| 2026-04-11 06:51 | 43.76333 | 76.60328 | 31207 ft | 485 kts | 101° |
| 2026-04-11 06:51 | 43.75206 | 76.69528 | 31206 ft | 485 kts | 101° |
| 2026-04-11 06:52 | 43.74071 | 76.78729 | 31205 ft | 485 kts | 101° |
| 2026-04-11 06:52 | 43.72930 | 76.87915 | 31205 ft | 485 kts | 101° |
| 2026-04-11 06:53 | 43.71780 | 76.97109 | 31205 ft | 485 kts | 101° |
| 2026-04-11 06:53 | 43.70624 | 77.06297 | 31209 ft | 485 kts | 101° |
| 2026-04-11 06:54 | 43.69460 | 77.15488 | 31211 ft | 485 kts | 102° |
| 2026-04-11 06:54 | 43.68290 | 77.24626 | 31212 ft | 486 kts | 102° |
| 2026-04-11 06:55 | 43.67098 | 77.33815 | 31201 ft | 486 kts | 102° |
| 2026-04-11 06:55 | 43.65899 | 77.43001 | 31211 ft | 485 kts | 102° |
| 2026-04-11 06:56 | 43.64697 | 77.52169 | 31213 ft | 485 kts | 102° |
| 2026-04-11 06:56 | 43.63488 | 77.61329 | 31220 ft | 485 kts | 102° |
| 2026-04-11 06:57 | 43.62269 | 77.70500 | 31203 ft | 486 kts | 102° |
| 2026-04-11 06:57 | 43.61043 | 77.79671 | 31213 ft | 485 kts | 102° |
| 2026-04-11 06:58 | 43.59811 | 77.88833 | 31225 ft | 485 kts | 103° |
| 2026-04-11 06:58 | 43.58582 | 77.97924 | 31225 ft | 485 kts | 102° |
| 2026-04-11 06:59 | 43.57425 | 78.07098 | 31212 ft | 487 kts | 98° |
| 2026-04-11 06:59 | 43.57148 | 78.16448 | 31211 ft | 488 kts | 93° |
| 2026-04-11 07:00 | 43.57046 | 78.25812 | 31215 ft | 488 kts | 93° |
| 2026-04-11 07:00 | 43.56908 | 78.35127 | 31214 ft | 489 kts | 94° |
| 2026-04-11 07:01 | 43.56735 | 78.44513 | 31210 ft | 489 kts | 94° |
| 2026-04-11 07:01 | 43.56547 | 78.53889 | 31207 ft | 490 kts | 94° |
| 2026-04-11 07:02 | 43.56352 | 78.63291 | 31214 ft | 490 kts | 94° |
| 2026-04-11 07:02 | 43.56152 | 78.72705 | 31204 ft | 491 kts | 94° |
| 2026-04-11 07:03 | 43.55945 | 78.82116 | 31208 ft | 491 kts | 94° |
| 2026-04-11 07:03 | 43.55730 | 78.91526 | 31201 ft | 491 kts | 94° |
| 2026-04-11 07:04 | 43.55507 | 79.00871 | 31192 ft | 490 kts | 95° |
| 2026-04-11 07:04 | 43.55277 | 79.10261 | 31200 ft | 490 kts | 95° |
| 2026-04-11 07:05 | 43.55040 | 79.19643 | 31204 ft | 489 kts | 95° |
| 2026-04-11 07:05 | 43.54795 | 79.28999 | 31203 ft | 488 kts | 95° |
| 2026-04-11 07:06 | 43.54541 | 79.38347 | 31201 ft | 487 kts | 95° |
| 2026-04-11 07:06 | 43.54280 | 79.47677 | 31208 ft | 486 kts | 95° |
| 2026-04-11 07:07 | 43.54013 | 79.56998 | 31284 ft | 489 kts | 95° |
| 2026-04-11 07:07 | 43.53877 | 79.61628 | 31567 ft | 489 kts | 95° |
| 2026-04-11 07:07 | 43.53736 | 79.66373 | 31914 ft | 488 kts | 95° |
| 2026-04-11 07:07 | 43.53598 | 79.70981 | 32260 ft | 487 kts | 95° |
| 2026-04-11 07:08 | 43.53457 | 79.75647 | 32582 ft | 487 kts | 95° |
| 2026-04-11 07:08 | 43.53313 | 79.80310 | 32875 ft | 487 kts | 95° |
| 2026-04-11 07:08 | 43.53166 | 79.84976 | 33110 ft | 488 kts | 94° |
| 2026-04-11 07:09 | 43.52860 | 79.94348 | 33201 ft | 490 kts | 95° |
| 2026-04-11 07:09 | 43.52548 | 80.03717 | 33194 ft | 488 kts | 95° |
| 2026-04-11 07:10 | 43.52071 | 80.17671 | 33208 ft | 485 kts | 95° |
| 2026-04-11 07:10 | 43.51744 | 80.26949 | 33210 ft | 484 kts | 95° |
| 2026-04-11 07:11 | 43.51410 | 80.36222 | 33212 ft | 485 kts | 95° |
| 2026-04-11 07:11 | 43.51068 | 80.45517 | 33215 ft | 485 kts | 95° |
| 2026-04-11 07:12 | 43.50720 | 80.54753 | 33208 ft | 486 kts | 95° |
| 2026-04-11 07:12 | 43.50362 | 80.64073 | 33200 ft | 487 kts | 95° |
| 2026-04-11 07:13 | 43.49997 | 80.73389 | 33220 ft | 487 kts | 95° |
| 2026-04-11 07:13 | 43.49786 | 80.82746 | 33204 ft | 488 kts | 92° |
| 2026-04-11 07:14 | 43.49697 | 80.92108 | 33209 ft | 489 kts | 92° |
| 2026-04-11 07:14 | 43.49583 | 81.01404 | 33207 ft | 488 kts | 93° |
| 2026-04-11 07:15 | 43.49436 | 81.10754 | 33201 ft | 488 kts | 93° |
| 2026-04-11 07:15 | 43.49272 | 81.20108 | 33214 ft | 488 kts | 93° |
| 2026-04-11 07:16 | 43.49103 | 81.29456 | 33194 ft | 488 kts | 93° |
| 2026-04-11 07:16 | 43.48926 | 81.38796 | 33188 ft | 488 kts | 93° |
| 2026-04-11 07:17 | 43.48744 | 81.48132 | 33199 ft | 487 kts | 93° |
| 2026-04-11 07:17 | 43.48552 | 81.57451 | 33203 ft | 487 kts | 94° |
| 2026-04-11 07:18 | 43.48356 | 81.66774 | 33196 ft | 486 kts | 93° |
| 2026-04-11 07:18 | 43.48146 | 81.76026 | 33196 ft | 486 kts | 94° |
| 2026-04-11 07:19 | 43.47922 | 81.85351 | 33196 ft | 486 kts | 94° |
| 2026-04-11 07:19 | 43.47690 | 81.94655 | 33194 ft | 486 kts | 94° |
| 2026-04-11 07:20 | 43.47451 | 82.03964 | 33190 ft | 486 kts | 94° |
| 2026-04-11 07:20 | 43.47206 | 82.13281 | 33190 ft | 487 kts | 94° |
| 2026-04-11 07:21 | 43.46954 | 82.22543 | 33199 ft | 488 kts | 94° |
| 2026-04-11 07:21 | 43.46693 | 82.31886 | 33194 ft | 489 kts | 94° |
| 2026-04-11 07:22 | 43.46424 | 82.41245 | 33190 ft | 489 kts | 94° |
| 2026-04-11 07:22 | 43.46147 | 82.50606 | 33195 ft | 489 kts | 94° |
| 2026-04-11 07:23 | 43.45862 | 82.59970 | 33191 ft | 490 kts | 94° |
| 2026-04-11 07:23 | 43.45570 | 82.69328 | 33203 ft | 489 kts | 94° |
| 2026-04-11 07:24 | 43.45270 | 82.78687 | 33204 ft | 489 kts | 94° |
| 2026-04-11 07:24 | 43.44965 | 82.87973 | 33210 ft | 489 kts | 94° |
| 2026-04-11 07:25 | 43.44650 | 82.97316 | 33210 ft | 488 kts | 94° |
| 2026-04-11 07:25 | 43.44329 | 83.06644 | 33217 ft | 488 kts | 94° |
| 2026-04-11 07:26 | 43.43999 | 83.15974 | 33217 ft | 488 kts | 95° |
| 2026-04-11 07:26 | 43.43663 | 83.25296 | 33218 ft | 487 kts | 95° |
| 2026-04-11 07:27 | 43.43320 | 83.34624 | 33219 ft | 488 kts | 95° |
| 2026-04-11 07:27 | 43.42764 | 83.43846 | 33220 ft | 487 kts | 98° |
| 2026-04-11 07:28 | 43.41962 | 83.53096 | 33224 ft | 487 kts | 98° |
| 2026-04-11 07:28 | 43.41145 | 83.62353 | 33224 ft | 488 kts | 98° |
| 2026-04-11 07:29 | 43.40344 | 83.71634 | 33222 ft | 489 kts | 98° |
| 2026-04-11 07:29 | 43.39548 | 83.80882 | 33219 ft | 490 kts | 98° |
| 2026-04-11 07:30 | 43.38739 | 83.90207 | 33212 ft | 491 kts | 98° |
| 2026-04-11 07:30 | 43.37920 | 83.99543 | 33212 ft | 492 kts | 98° |
| 2026-04-11 07:31 | 43.37090 | 84.08903 | 33207 ft | 493 kts | 99° |
| 2026-04-11 07:31 | 43.36252 | 84.18264 | 33200 ft | 493 kts | 99° |
| 2026-04-11 07:32 | 43.35413 | 84.27572 | 33196 ft | 493 kts | 99° |
| 2026-04-11 07:32 | 43.34563 | 84.36916 | 33180 ft | 492 kts | 99° |
| 2026-04-11 07:33 | 43.33836 | 84.44663 | 33174 ft | 490 kts | 99° |
| 2026-04-11 07:33 | 43.32804 | 84.55433 | 33174 ft | 488 kts | 99° |
| 2026-04-11 07:34 | 43.32057 | 84.63172 | 33163 ft | 487 kts | 99° |
| 2026-04-11 07:34 | 43.31163 | 84.72397 | 33163 ft | 487 kts | 99° |
| 2026-04-11 07:35 | 43.30269 | 84.81546 | 33148 ft | 486 kts | 99° |
| 2026-04-11 07:35 | 43.29364 | 84.90754 | 33145 ft | 487 kts | 99° |
| 2026-04-11 07:36 | 43.28447 | 84.99961 | 33133 ft | 487 kts | 100° |
| 2026-04-11 07:36 | 43.27524 | 85.09172 | 33133 ft | 487 kts | 100° |
| 2026-04-11 07:37 | 43.26595 | 85.18386 | 33122 ft | 487 kts | 100° |
| 2026-04-11 07:37 | 43.25663 | 85.27534 | 33122 ft | 487 kts | 100° |
| 2026-04-11 07:38 | 43.24716 | 85.36753 | 33126 ft | 488 kts | 100° |
| 2026-04-11 07:38 | 43.23762 | 85.45966 | 33126 ft | 488 kts | 101° |
| 2026-04-11 07:39 | 43.22800 | 85.55201 | 33119 ft | 490 kts | 101° |
| 2026-04-11 07:39 | 43.21826 | 85.64457 | 33132 ft | 491 kts | 101° |
| 2026-04-11 07:40 | 43.20849 | 85.73665 | 33130 ft | 492 kts | 101° |
| 2026-04-11 07:40 | 43.19858 | 85.82956 | 33128 ft | 493 kts | 101° |
| 2026-04-11 07:41 | 43.18964 | 85.92261 | 33129 ft | 493 kts | 93° |
| 2026-04-11 07:41 | 43.19275 | 85.96951 | 33153 ft | 498 kts | 79° |
| 2026-04-11 07:41 | 43.20322 | 86.01484 | 33156 ft | 501 kts | 67° |
| 2026-04-11 07:42 | 43.22055 | 86.05627 | 33160 ft | 502 kts | 56° |
| 2026-04-11 07:42 | 43.24079 | 86.09546 | 33164 ft | 503 kts | 55° |
| 2026-04-11 07:43 | 43.30019 | 86.21429 | 33200 ft | 507 kts | 57° |
| 2026-04-11 07:43 | 43.33922 | 86.29511 | 33208 ft | 508 kts | 57° |
| 2026-04-11 07:44 | 43.37844 | 86.37613 | 33211 ft | 510 kts | 57° |
| 2026-04-11 07:44 | 43.41781 | 86.45761 | 33226 ft | 512 kts | 57° |
| 2026-04-11 07:45 | 43.45745 | 86.53934 | 33219 ft | 514 kts | 57° |
| 2026-04-11 07:45 | 43.49695 | 86.62068 | 33203 ft | 514 kts | 57° |
| 2026-04-11 07:46 | 43.53658 | 86.70263 | 33215 ft | 514 kts | 57° |
| 2026-04-11 07:46 | 43.57592 | 86.78479 | 33211 ft | 513 kts | 58° |
| 2026-04-11 07:47 | 43.61502 | 86.86734 | 33198 ft | 513 kts | 57° |
| 2026-04-11 07:47 | 43.65409 | 86.94997 | 33192 ft | 514 kts | 57° |
| 2026-04-11 07:48 | 43.69299 | 87.03236 | 33181 ft | 515 kts | 57° |
| 2026-04-11 07:48 | 43.73211 | 87.11541 | 33174 ft | 515 kts | 57° |
| 2026-04-11 07:49 | 43.77110 | 87.19871 | 33172 ft | 516 kts | 57° |
| 2026-04-11 07:49 | 43.81003 | 87.28241 | 33161 ft | 517 kts | 57° |
| 2026-04-11 07:50 | 43.84865 | 87.36565 | 33156 ft | 517 kts | 57° |
| 2026-04-11 07:50 | 43.88753 | 87.44965 | 33159 ft | 517 kts | 57° |
| 2026-04-11 07:51 | 43.92731 | 87.53274 | 33154 ft | 517 kts | 53° |
| 2026-04-11 07:51 | 43.97064 | 87.61169 | 33160 ft | 516 kts | 51° |
| 2026-04-11 07:52 | 44.01451 | 87.69087 | 33158 ft | 517 kts | 52° |
| 2026-04-11 07:52 | 44.05800 | 87.77051 | 33164 ft | 518 kts | 52° |
| 2026-04-11 07:53 | 44.10134 | 87.85047 | 33162 ft | 518 kts | 52° |
| 2026-04-11 07:53 | 44.14441 | 87.93108 | 33157 ft | 519 kts | 56° |
| 2026-04-11 07:54 | 44.17653 | 88.02034 | 33161 ft | 520 kts | 70° |
| 2026-04-11 07:54 | 44.19469 | 88.11754 | 33164 ft | 519 kts | 79° |
| 2026-04-11 07:55 | 44.20859 | 88.21635 | 33155 ft | 520 kts | 80° |
| 2026-04-11 07:55 | 44.22270 | 88.31537 | 33146 ft | 521 kts | 79° |
| 2026-04-11 07:56 | 44.23722 | 88.41439 | 33145 ft | 522 kts | 79° |
| 2026-04-11 07:56 | 44.25183 | 88.51349 | 33135 ft | 522 kts | 79° |
| 2026-04-11 07:57 | 44.26637 | 88.61280 | 33127 ft | 523 kts | 79° |
| 2026-04-11 07:57 | 44.28072 | 88.71170 | 33123 ft | 523 kts | 79° |
| 2026-04-11 07:58 | 44.29506 | 88.81126 | 33116 ft | 523 kts | 79° |
| 2026-04-11 07:58 | 44.30932 | 88.91091 | 33104 ft | 523 kts | 79° |
| 2026-04-11 07:59 | 44.32349 | 89.01062 | 33106 ft | 523 kts | 79° |
| 2026-04-11 07:59 | 44.33749 | 89.10975 | 33097 ft | 523 kts | 79° |
| 2026-04-11 08:00 | 44.35149 | 89.20953 | 33094 ft | 523 kts | 79° |
| 2026-04-11 08:00 | 44.36540 | 89.30934 | 33092 ft | 523 kts | 79° |
| 2026-04-11 08:01 | 44.37923 | 89.40920 | 33088 ft | 523 kts | 79° |
| 2026-04-11 08:01 | 44.39289 | 89.50856 | 33088 ft | 523 kts | 79° |
| 2026-04-11 08:02 | 44.40652 | 89.60855 | 33079 ft | 524 kts | 81° |
| 2026-04-11 08:02 | 44.40927 | 89.70973 | 33082 ft | 520 kts | 97° |
| 2026-04-11 08:03 | 44.39459 | 89.80822 | 33081 ft | 516 kts | 110° |
| 2026-04-11 08:03 | 44.37288 | 89.90396 | 33084 ft | 517 kts | 111° |
| 2026-04-11 08:04 | 44.35119 | 89.99997 | 33071 ft | 519 kts | 110° |
| 2026-04-11 08:04 | 44.32988 | 90.09641 | 33074 ft | 520 kts | 110° |
| 2026-04-11 08:05 | 44.30880 | 90.19238 | 33084 ft | 521 kts | 110° |
| 2026-04-11 08:05 | 44.28749 | 90.28896 | 33074 ft | 521 kts | 110° |
| 2026-04-11 08:06 | 44.26604 | 90.38554 | 33069 ft | 521 kts | 110° |
| 2026-04-11 08:06 | 44.24449 | 90.48208 | 33077 ft | 521 kts | 110° |
| 2026-04-11 08:07 | 44.22286 | 90.57853 | 33073 ft | 520 kts | 110° |
| 2026-04-11 08:07 | 44.20118 | 90.67481 | 33071 ft | 520 kts | 110° |
| 2026-04-11 08:08 | 44.16865 | 90.81846 | 33074 ft | 520 kts | 111° |
| 2026-04-11 08:08 | 44.14682 | 90.91436 | 33075 ft | 519 kts | 111° |
| 2026-04-11 08:09 | 44.12492 | 91.01018 | 33076 ft | 520 kts | 111° |
| 2026-04-11 08:09 | 44.10292 | 91.10615 | 33072 ft | 520 kts | 110° |
| 2026-04-11 08:10 | 44.08104 | 91.20167 | 33078 ft | 521 kts | 110° |
| 2026-04-11 08:10 | 44.05896 | 91.29771 | 33076 ft | 522 kts | 110° |
| 2026-04-11 08:11 | 44.03676 | 91.39382 | 33075 ft | 522 kts | 111° |
| 2026-04-11 08:11 | 44.01435 | 91.48983 | 33072 ft | 522 kts | 111° |
| 2026-04-11 08:12 | 43.99160 | 91.58571 | 33067 ft | 522 kts | 111° |
| 2026-04-11 08:12 | 43.96880 | 91.68143 | 33066 ft | 522 kts | 111° |
| 2026-04-11 08:13 | 43.94601 | 91.77693 | 33065 ft | 520 kts | 111° |
| 2026-04-11 08:13 | 43.92334 | 91.87160 | 33072 ft | 519 kts | 112° |
| 2026-04-11 08:14 | 43.90053 | 91.96648 | 33070 ft | 518 kts | 112° |
| 2026-04-11 08:14 | 43.87765 | 92.06119 | 33064 ft | 518 kts | 112° |
| 2026-04-11 08:15 | 43.85471 | 92.15575 | 33067 ft | 517 kts | 112° |
| 2026-04-11 08:15 | 43.83170 | 92.25021 | 33064 ft | 517 kts | 112° |
| 2026-04-11 08:16 | 43.80878 | 92.34391 | 33056 ft | 517 kts | 112° |
| 2026-04-11 08:16 | 43.78562 | 92.43823 | 33058 ft | 517 kts | 112° |
| 2026-04-11 08:17 | 43.76233 | 92.53269 | 33054 ft | 518 kts | 112° |
| 2026-04-11 08:17 | 43.73899 | 92.62696 | 33042 ft | 518 kts | 112° |
| 2026-04-11 08:18 | 43.71556 | 92.72121 | 33033 ft | 519 kts | 112° |
| 2026-04-11 08:18 | 43.69215 | 92.81500 | 33038 ft | 519 kts | 112° |
| 2026-04-11 08:19 | 43.66849 | 92.90947 | 33039 ft | 520 kts | 112° |
| 2026-04-11 08:19 | 43.64478 | 93.00386 | 33036 ft | 521 kts | 112° |
| 2026-04-11 08:20 | 43.62185 | 93.09887 | 33027 ft | 522 kts | 111° |
| 2026-04-11 08:20 | 43.59943 | 93.19347 | 33033 ft | 522 kts | 111° |
| 2026-04-11 08:21 | 43.57668 | 93.28867 | 33029 ft | 522 kts | 111° |
| 2026-04-11 08:21 | 43.55372 | 93.38384 | 33021 ft | 523 kts | 111° |
| 2026-04-11 08:22 | 43.53066 | 93.47881 | 33022 ft | 522 kts | 111° |
| 2026-04-11 08:22 | 43.50754 | 93.57364 | 33011 ft | 522 kts | 111° |
| 2026-04-11 08:23 | 43.48434 | 93.66845 | 33011 ft | 522 kts | 112° |
| 2026-04-11 08:23 | 43.46106 | 93.76321 | 33003 ft | 522 kts | 112° |
| 2026-04-11 08:24 | 43.43788 | 93.85718 | 33009 ft | 521 kts | 112° |
| 2026-04-11 08:24 | 43.41452 | 93.95148 | 32998 ft | 521 kts | 112° |
| 2026-04-11 08:25 | 43.39108 | 94.04571 | 32999 ft | 520 kts | 112° |
| 2026-04-11 08:25 | 43.36760 | 94.13973 | 33007 ft | 520 kts | 112° |
| 2026-04-11 08:26 | 43.34404 | 94.23369 | 32984 ft | 520 kts | 112° |
| 2026-04-11 08:26 | 43.32036 | 94.32772 | 32974 ft | 520 kts | 112° |
| 2026-04-11 08:27 | 43.29676 | 94.42107 | 32992 ft | 521 kts | 112° |
| 2026-04-11 08:27 | 43.27291 | 94.51509 | 32984 ft | 521 kts | 112° |
| 2026-04-11 08:28 | 43.24898 | 94.60899 | 32966 ft | 521 kts | 112° |
| 2026-04-11 08:28 | 43.22495 | 94.70294 | 32965 ft | 521 kts | 112° |
| 2026-04-11 08:29 | 43.20105 | 94.79602 | 32950 ft | 520 kts | 112° |
| 2026-04-11 08:29 | 43.17693 | 94.88961 | 32946 ft | 520 kts | 112° |
| 2026-04-11 08:30 | 43.15278 | 94.98296 | 32930 ft | 519 kts | 112° |
| 2026-04-11 08:30 | 43.12209 | 95.07038 | 32918 ft | 507 kts | 131° |
| 2026-04-11 08:31 | 43.07339 | 95.13770 | 32921 ft | 491 kts | 150° |
| 2026-04-11 08:31 | 43.01664 | 95.18924 | 32926 ft | 490 kts | 152° |
| 2026-04-11 08:32 | 42.95965 | 95.24094 | 32923 ft | 493 kts | 151° |
| 2026-04-11 08:32 | 42.91232 | 95.28457 | 32914 ft | 495 kts | 150° |
| 2026-04-11 08:33 | 42.85532 | 95.33740 | 32904 ft | 496 kts | 150° |
| 2026-04-11 08:33 | 42.78894 | 95.39883 | 32903 ft | 496 kts | 150° |
| 2026-04-11 08:34 | 42.74152 | 95.44258 | 32894 ft | 495 kts | 150° |
| 2026-04-11 08:34 | 42.68450 | 95.49504 | 32895 ft | 494 kts | 150° |
| 2026-04-11 08:35 | 42.62768 | 95.54722 | 32903 ft | 492 kts | 150° |
| 2026-04-11 08:35 | 42.57092 | 95.59921 | 32900 ft | 491 kts | 150° |
| 2026-04-11 08:36 | 42.51423 | 95.65102 | 32899 ft | 491 kts | 150° |
| 2026-04-11 08:36 | 42.45787 | 95.70244 | 32901 ft | 491 kts | 150° |
| 2026-04-11 08:37 | 42.40625 | 95.76253 | 32914 ft | 500 kts | 127° |
| 2026-04-11 08:37 | 42.39045 | 95.80477 | 32927 ft | 508 kts | 111° |
| 2026-04-11 08:37 | 42.38333 | 95.85186 | 32912 ft | 513 kts | 94° |
| 2026-04-11 08:38 | 42.38211 | 95.94853 | 32923 ft | 516 kts | 92° |
| 2026-04-11 08:38 | 42.38038 | 96.04602 | 32934 ft | 521 kts | 93° |
| 2026-04-11 08:39 | 42.37782 | 96.14423 | 32932 ft | 524 kts | 94° |
| 2026-04-11 08:39 | 42.37490 | 96.24277 | 32927 ft | 525 kts | 94° |
| 2026-04-11 08:40 | 42.37190 | 96.34082 | 32927 ft | 525 kts | 94° |
| 2026-04-11 08:40 | 42.36884 | 96.43937 | 32916 ft | 523 kts | 94° |
| 2026-04-11 08:41 | 42.36574 | 96.53768 | 32912 ft | 522 kts | 94° |
| 2026-04-11 08:41 | 42.36255 | 96.63568 | 32911 ft | 521 kts | 94° |
| 2026-04-11 08:42 | 42.35928 | 96.73364 | 32905 ft | 521 kts | 94° |
| 2026-04-11 08:43 | 42.35424 | 96.87997 | 32903 ft | 521 kts | 94° |
| 2026-04-11 08:43 | 42.35075 | 96.97815 | 32890 ft | 522 kts | 94° |
| 2026-04-11 08:44 | 42.34718 | 97.07626 | 32887 ft | 522 kts | 95° |
| 2026-04-11 08:44 | 42.34353 | 97.17441 | 32880 ft | 523 kts | 95° |
| 2026-04-11 08:45 | 42.33979 | 97.27259 | 32880 ft | 523 kts | 95° |
| 2026-04-11 08:45 | 42.33596 | 97.37090 | 32869 ft | 523 kts | 95° |
| 2026-04-11 08:46 | 42.33205 | 97.46915 | 32861 ft | 523 kts | 95° |
| 2026-04-11 08:46 | 42.32808 | 97.56666 | 32859 ft | 523 kts | 95° |
| 2026-04-11 08:47 | 42.32401 | 97.66483 | 32849 ft | 523 kts | 95° |
| 2026-04-11 08:47 | 42.31985 | 97.76304 | 32848 ft | 523 kts | 95° |
| 2026-04-11 08:48 | 42.31560 | 97.86122 | 32841 ft | 523 kts | 95° |
| 2026-04-11 08:48 | 42.31130 | 97.95872 | 32843 ft | 523 kts | 95° |
| 2026-04-11 08:49 | 42.30690 | 98.05682 | 32833 ft | 523 kts | 95° |
| 2026-04-11 08:49 | 42.30240 | 98.15489 | 32830 ft | 523 kts | 95° |
| 2026-04-11 08:50 | 42.29784 | 98.25306 | 32818 ft | 524 kts | 95° |
| 2026-04-11 08:50 | 42.29314 | 98.35125 | 32821 ft | 524 kts | 95° |
| 2026-04-11 08:51 | 42.28812 | 98.44951 | 32809 ft | 524 kts | 96° |
| 2026-04-11 08:51 | 42.28294 | 98.54801 | 32808 ft | 525 kts | 96° |
| 2026-04-11 08:52 | 42.27511 | 98.69526 | 32796 ft | 526 kts | 96° |
| 2026-04-11 08:52 | 42.26978 | 98.79391 | 32792 ft | 527 kts | 96° |
| 2026-04-11 08:53 | 42.26435 | 98.89281 | 32792 ft | 528 kts | 96° |
| 2026-04-11 08:53 | 42.25883 | 98.99180 | 32778 ft | 528 kts | 96° |
| 2026-04-11 08:54 | 42.25323 | 99.09071 | 32774 ft | 528 kts | 96° |
| 2026-04-11 08:54 | 42.24758 | 99.18894 | 32773 ft | 528 kts | 96° |
| 2026-04-11 08:55 | 42.24181 | 99.28780 | 32771 ft | 528 kts | 96° |
| 2026-04-11 08:55 | 42.23595 | 99.38669 | 32761 ft | 529 kts | 96° |
| 2026-04-11 08:56 | 42.23000 | 99.48566 | 32756 ft | 528 kts | 96° |
| 2026-04-11 08:56 | 42.22396 | 99.58450 | 32756 ft | 528 kts | 96° |
| 2026-04-11 08:57 | 42.21791 | 99.68246 | 32753 ft | 527 kts | 96° |
| 2026-04-11 08:57 | 42.21172 | 99.78108 | 32746 ft | 527 kts | 96° |
| 2026-04-11 08:58 | 42.20546 | 99.87959 | 32747 ft | 527 kts | 96° |
| 2026-04-11 08:58 | 42.19910 | 99.97809 | 32747 ft | 527 kts | 96° |
| 2026-04-11 08:59 | 42.19266 | 100.07669 | 32743 ft | 527 kts | 96° |
| 2026-04-11 08:59 | 42.18613 | 100.17532 | 32739 ft | 528 kts | 97° |
| 2026-04-11 09:00 | 42.17952 | 100.27388 | 32739 ft | 528 kts | 97° |
| 2026-04-11 09:00 | 42.17287 | 100.37181 | 32733 ft | 528 kts | 97° |
| 2026-04-11 09:01 | 42.16608 | 100.47049 | 32733 ft | 528 kts | 97° |
| 2026-04-11 09:01 | 42.15921 | 100.56907 | 32728 ft | 528 kts | 97° |
| 2026-04-11 09:02 | 42.15226 | 100.66763 | 32724 ft | 528 kts | 97° |
| 2026-04-11 09:02 | 42.14521 | 100.76626 | 32722 ft | 528 kts | 97° |
| 2026-04-11 09:03 | 42.13809 | 100.86478 | 32723 ft | 528 kts | 97° |
| 2026-04-11 09:03 | 42.13090 | 100.96333 | 32720 ft | 529 kts | 97° |
| 2026-04-11 09:04 | 42.11978 | 101.06032 | 32722 ft | 526 kts | 106° |
| 2026-04-11 09:04 | 42.09726 | 101.15346 | 32726 ft | 523 kts | 113° |
| 2026-04-11 09:05 | 42.07234 | 101.24569 | 32717 ft | 524 kts | 113° |
| 2026-04-11 09:05 | 42.04768 | 101.33807 | 32713 ft | 525 kts | 112° |
| 2026-04-11 09:06 | 42.02325 | 101.43064 | 32710 ft | 525 kts | 112° |
| 2026-04-11 09:06 | 41.99880 | 101.52328 | 32705 ft | 525 kts | 112° |
| 2026-04-11 09:07 | 41.97443 | 101.61517 | 32705 ft | 525 kts | 112° |
| 2026-04-11 09:07 | 41.94983 | 101.70745 | 32706 ft | 525 kts | 113° |
| 2026-04-11 09:08 | 41.92515 | 101.79969 | 32704 ft | 524 kts | 113° |
| 2026-04-11 09:08 | 41.90042 | 101.89174 | 32702 ft | 523 kts | 113° |
| 2026-04-11 09:09 | 41.87567 | 101.98355 | 32702 ft | 523 kts | 113° |
| 2026-04-11 09:09 | 41.85081 | 102.07542 | 32702 ft | 523 kts | 113° |
| 2026-04-11 09:10 | 41.82606 | 102.16656 | 32700 ft | 523 kts | 113° |
| 2026-04-11 09:10 | 41.80107 | 102.25826 | 32698 ft | 523 kts | 113° |
| 2026-04-11 09:11 | 41.77602 | 102.34982 | 32697 ft | 523 kts | 113° |
| 2026-04-11 09:11 | 41.75088 | 102.44137 | 32700 ft | 523 kts | 113° |
| 2026-04-11 09:12 | 41.72610 | 102.53129 | 32695 ft | 523 kts | 113° |
| 2026-04-11 09:12 | 41.70083 | 102.62269 | 32696 ft | 523 kts | 113° |
| 2026-04-11 09:13 | 41.67547 | 102.71407 | 32693 ft | 524 kts | 113° |
| 2026-04-11 09:13 | 41.64999 | 102.80542 | 32691 ft | 524 kts | 113° |
| 2026-04-11 09:14 | 41.62443 | 102.89677 | 32690 ft | 524 kts | 113° |
| 2026-04-11 09:14 | 41.59882 | 102.98807 | 32690 ft | 524 kts | 113° |
| 2026-04-11 09:15 | 41.57303 | 103.07934 | 32687 ft | 524 kts | 114° |
| 2026-04-11 09:15 | 41.54714 | 103.17044 | 32683 ft | 525 kts | 114° |
| 2026-04-11 09:16 | 41.52120 | 103.26148 | 32689 ft | 525 kts | 114° |
| 2026-04-11 09:16 | 41.49521 | 103.35243 | 32684 ft | 525 kts | 114° |
| 2026-04-11 09:17 | 41.46915 | 103.44333 | 32688 ft | 525 kts | 114° |
| 2026-04-11 09:17 | 41.44296 | 103.53434 | 32682 ft | 525 kts | 114° |
| 2026-04-11 09:18 | 41.41690 | 103.62456 | 32683 ft | 526 kts | 114° |
| 2026-04-11 09:18 | 41.39052 | 103.71559 | 32684 ft | 526 kts | 114° |
| 2026-04-11 09:19 | 41.36408 | 103.80651 | 32676 ft | 526 kts | 114° |
| 2026-04-11 09:19 | 41.33756 | 103.89738 | 32678 ft | 527 kts | 114° |
| 2026-04-11 09:20 | 41.31093 | 103.98830 | 32675 ft | 527 kts | 114° |
| 2026-04-11 09:20 | 41.28436 | 104.07872 | 32676 ft | 528 kts | 114° |
| 2026-04-11 09:21 | 41.25754 | 104.16965 | 32672 ft | 528 kts | 114° |
| 2026-04-11 09:21 | 41.23063 | 104.26057 | 32678 ft | 529 kts | 114° |
| 2026-04-11 09:22 | 41.20381 | 104.35087 | 32680 ft | 529 kts | 114° |
| 2026-04-11 09:22 | 41.17671 | 104.44182 | 32685 ft | 530 kts | 114° |
| 2026-04-11 09:23 | 41.14952 | 104.53276 | 32680 ft | 530 kts | 114° |
| 2026-04-11 09:23 | 41.12226 | 104.62368 | 32684 ft | 530 kts | 114° |
| 2026-04-11 09:24 | 41.09489 | 104.71449 | 32691 ft | 530 kts | 115° |
| 2026-04-11 09:24 | 41.07051 | 104.78917 | 32691 ft | 530 kts | 117° |
| 2026-04-11 09:25 | 41.03492 | 104.89229 | 32689 ft | 529 kts | 117° |
| 2026-04-11 09:25 | 41.00438 | 104.98110 | 32698 ft | 529 kts | 117° |
| 2026-04-11 09:26 | 40.97919 | 105.05500 | 32695 ft | 529 kts | 117° |
| 2026-04-11 09:26 | 40.94897 | 105.14384 | 32699 ft | 529 kts | 117° |
| 2026-04-11 09:27 | 40.91869 | 105.23257 | 32698 ft | 529 kts | 117° |
| 2026-04-11 09:27 | 40.88826 | 105.32133 | 32696 ft | 529 kts | 117° |
| 2026-04-11 09:28 | 40.85778 | 105.40995 | 32700 ft | 529 kts | 117° |
| 2026-04-11 09:28 | 40.82725 | 105.49845 | 32699 ft | 529 kts | 117° |
| 2026-04-11 09:29 | 40.79661 | 105.58696 | 32699 ft | 530 kts | 117° |
| 2026-04-11 09:29 | 40.76594 | 105.67530 | 32715 ft | 529 kts | 117° |
| 2026-04-11 09:30 | 40.73538 | 105.76305 | 32691 ft | 529 kts | 117° |
| 2026-04-11 09:30 | 40.70458 | 105.85122 | 32705 ft | 529 kts | 117° |
| 2026-04-11 09:31 | 40.67374 | 105.93923 | 32708 ft | 529 kts | 117° |
| 2026-04-11 09:31 | 40.64286 | 106.02709 | 32687 ft | 529 kts | 117° |
| 2026-04-11 09:32 | 40.61185 | 106.11504 | 32695 ft | 529 kts | 117° |
| 2026-04-11 09:32 | 40.58104 | 106.20216 | 32686 ft | 529 kts | 117° |
| 2026-04-11 09:33 | 40.54996 | 106.28976 | 32683 ft | 528 kts | 117° |
| 2026-04-11 09:33 | 40.51884 | 106.37724 | 32671 ft | 528 kts | 117° |
| 2026-04-11 09:34 | 40.48756 | 106.46488 | 32656 ft | 528 kts | 117° |
| 2026-04-11 09:34 | 40.45633 | 106.55212 | 32660 ft | 528 kts | 117° |
| 2026-04-11 09:35 | 40.42498 | 106.63942 | 32658 ft | 528 kts | 117° |
| 2026-04-11 09:35 | 40.39380 | 106.72601 | 32659 ft | 528 kts | 117° |
| 2026-04-11 09:36 | 40.36240 | 106.81298 | 32660 ft | 528 kts | 117° |
| 2026-04-11 09:36 | 40.33121 | 106.90011 | 32661 ft | 527 kts | 114° |
| 2026-04-11 09:37 | 40.32035 | 106.94611 | 32666 ft | 530 kts | 102° |
| 2026-04-11 09:37 | 40.31553 | 106.99392 | 32670 ft | 531 kts | 93° |
| 2026-04-11 09:37 | 40.31610 | 107.04223 | 32667 ft | 530 kts | 82° |
| 2026-04-11 09:37 | 40.32182 | 107.08990 | 32680 ft | 529 kts | 79° |
| 2026-04-11 09:38 | 40.33501 | 107.18493 | 32671 ft | 531 kts | 78° |
| 2026-04-11 09:38 | 40.34770 | 107.28050 | 32668 ft | 533 kts | 79° |
| 2026-04-11 09:39 | 40.35964 | 107.37647 | 32667 ft | 534 kts | 80° |
| 2026-04-11 09:39 | 40.37132 | 107.47263 | 32659 ft | 534 kts | 80° |
| 2026-04-11 09:40 | 40.38291 | 107.56831 | 32654 ft | 534 kts | 80° |
| 2026-04-11 09:40 | 40.39452 | 107.66439 | 32667 ft | 533 kts | 80° |
| 2026-04-11 09:41 | 40.40606 | 107.76059 | 32666 ft | 533 kts | 80° |
| 2026-04-11 09:41 | 40.41750 | 107.85663 | 32653 ft | 532 kts | 80° |
| 2026-04-11 09:42 | 40.42874 | 107.95165 | 32659 ft | 532 kts | 80° |
| 2026-04-11 09:43 | 40.44540 | 108.09491 | 32650 ft | 531 kts | 81° |
| 2026-04-11 09:43 | 40.45638 | 108.19083 | 32657 ft | 531 kts | 81° |
| 2026-04-11 09:44 | 40.46729 | 108.28678 | 32658 ft | 531 kts | 81° |
| 2026-04-11 09:44 | 40.47815 | 108.38283 | 32646 ft | 532 kts | 81° |
| 2026-04-11 09:45 | 40.48894 | 108.47891 | 32652 ft | 532 kts | 81° |
| 2026-04-11 09:45 | 40.49966 | 108.57521 | 32650 ft | 532 kts | 81° |
| 2026-04-11 09:46 | 40.51029 | 108.67142 | 32653 ft | 532 kts | 81° |
| 2026-04-11 09:46 | 40.52084 | 108.76771 | 32649 ft | 532 kts | 81° |
| 2026-04-11 09:47 | 40.53126 | 108.86351 | 32647 ft | 533 kts | 81° |
| 2026-04-11 09:47 | 40.54167 | 108.96005 | 32660 ft | 533 kts | 81° |
| 2026-04-11 09:48 | 40.55200 | 109.05657 | 32645 ft | 533 kts | 81° |
| 2026-04-11 09:48 | 40.56225 | 109.15310 | 32663 ft | 533 kts | 82° |
| 2026-04-11 09:49 | 40.57244 | 109.24989 | 32661 ft | 533 kts | 82° |
| 2026-04-11 09:49 | 40.58254 | 109.34658 | 32668 ft | 533 kts | 82° |
| 2026-04-11 09:50 | 40.59250 | 109.44276 | 32658 ft | 534 kts | 82° |
| 2026-04-11 09:50 | 40.60243 | 109.53952 | 32661 ft | 534 kts | 82° |
| 2026-04-11 09:51 | 40.61229 | 109.63636 | 32674 ft | 534 kts | 82° |
| 2026-04-11 09:51 | 40.62208 | 109.73330 | 32677 ft | 534 kts | 82° |
| 2026-04-11 09:52 | 40.63179 | 109.83033 | 32672 ft | 534 kts | 82° |
| 2026-04-11 09:52 | 40.64143 | 109.92738 | 32686 ft | 534 kts | 82° |
| 2026-04-11 09:53 | 40.64792 | 110.02476 | 32688 ft | 534 kts | 90° |
| 2026-04-11 09:53 | 40.64698 | 110.12183 | 32702 ft | 534 kts | 91° |
| 2026-04-11 09:54 | 40.64575 | 110.21969 | 32701 ft | 535 kts | 91° |
| 2026-04-11 09:54 | 40.64503 | 110.31772 | 32709 ft | 534 kts | 91° |
| 2026-04-11 09:55 | 40.64438 | 110.41566 | 32709 ft | 535 kts | 91° |
| 2026-04-11 09:55 | 40.64357 | 110.51289 | 32714 ft | 535 kts | 91° |
| 2026-04-11 09:56 | 40.64270 | 110.61100 | 32727 ft | 535 kts | 91° |
| 2026-04-11 09:56 | 40.64175 | 110.70895 | 32704 ft | 534 kts | 91° |
| 2026-04-11 09:57 | 40.64074 | 110.80675 | 32703 ft | 533 kts | 91° |
| 2026-04-11 09:57 | 40.63961 | 110.90435 | 32735 ft | 534 kts | 91° |
| 2026-04-11 09:58 | 40.63841 | 111.00215 | 32746 ft | 535 kts | 91° |
| 2026-04-11 09:58 | 40.63714 | 111.10017 | 32750 ft | 536 kts | 91° |
| 2026-04-11 09:59 | 40.63580 | 111.19775 | 32750 ft | 537 kts | 91° |
| 2026-04-11 09:59 | 40.63436 | 111.29613 | 32747 ft | 538 kts | 91° |
| 2026-04-11 10:00 | 40.63284 | 111.39487 | 32750 ft | 538 kts | 92° |
| 2026-04-11 10:00 | 40.63125 | 111.49348 | 32753 ft | 539 kts | 92° |
| 2026-04-11 10:01 | 40.62957 | 111.59196 | 32754 ft | 538 kts | 92° |
| 2026-04-11 10:01 | 40.62781 | 111.69058 | 32756 ft | 538 kts | 92° |
| 2026-04-11 10:02 | 40.62597 | 111.78913 | 32755 ft | 538 kts | 92° |
| 2026-04-11 10:02 | 40.62405 | 111.88768 | 32755 ft | 538 kts | 92° |
| 2026-04-11 10:03 | 40.62293 | 111.98560 | 32757 ft | 539 kts | 92° |
| 2026-04-11 10:03 | 40.61991 | 112.08430 | 32756 ft | 539 kts | 93° |
| 2026-04-11 10:04 | 40.61753 | 112.18308 | 32766 ft | 540 kts | 92° |
| 2026-04-11 10:04 | 40.61537 | 112.28194 | 32772 ft | 540 kts | 92° |
| 2026-04-11 10:05 | 40.61297 | 112.38090 | 32784 ft | 540 kts | 92° |
| 2026-04-11 10:05 | 40.61049 | 112.47972 | 32769 ft | 540 kts | 92° |
| 2026-04-11 10:06 | 40.60665 | 112.57772 | 32767 ft | 539 kts | 95° |
| 2026-04-11 10:06 | 40.60025 | 112.67604 | 32774 ft | 539 kts | 95° |
| 2026-04-11 10:07 | 40.59398 | 112.77445 | 32763 ft | 539 kts | 97° |
| 2026-04-11 10:07 | 40.58592 | 112.87252 | 32759 ft | 540 kts | 96° |
| 2026-04-11 10:08 | 40.57938 | 112.97105 | 32757 ft | 541 kts | 95° |
| 2026-04-11 10:08 | 40.57312 | 113.06967 | 32751 ft | 541 kts | 95° |
| 2026-04-11 10:09 | 40.56654 | 113.16829 | 32756 ft | 541 kts | 95° |
| 2026-04-11 10:09 | 40.55971 | 113.26696 | 32741 ft | 542 kts | 96° |
| 2026-04-11 10:10 | 40.55283 | 113.36501 | 32758 ft | 542 kts | 96° |
| 2026-04-11 10:10 | 40.54584 | 113.46362 | 32749 ft | 541 kts | 96° |
| 2026-04-11 10:11 | 40.53878 | 113.56216 | 32757 ft | 541 kts | 96° |
| 2026-04-11 10:11 | 40.53164 | 113.66064 | 32746 ft | 541 kts | 96° |
| 2026-04-11 10:12 | 40.52442 | 113.75898 | 32770 ft | 540 kts | 96° |
| 2026-04-11 10:12 | 40.51713 | 113.85734 | 32755 ft | 540 kts | 96° |
| 2026-04-11 10:13 | 40.50976 | 113.95554 | 32759 ft | 540 kts | 96° |
| 2026-04-11 10:13 | 40.50317 | 114.05403 | 32763 ft | 542 kts | 94° |
| 2026-04-11 10:14 | 40.49936 | 114.15238 | 32762 ft | 542 kts | 92° |
| 2026-04-11 10:14 | 40.49581 | 114.25130 | 32762 ft | 542 kts | 93° |
| 2026-04-11 10:15 | 40.49170 | 114.35004 | 32775 ft | 541 kts | 93° |
| 2026-04-11 10:15 | 40.48722 | 114.44900 | 32766 ft | 542 kts | 93° |
| 2026-04-11 10:16 | 40.48342 | 114.53109 | 32774 ft | 541 kts | 93° |
| 2026-04-11 10:16 | 40.47880 | 114.62996 | 32779 ft | 541 kts | 94° |
| 2026-04-11 10:17 | 40.47336 | 114.74466 | 32787 ft | 541 kts | 94° |
| 2026-04-11 10:17 | 40.46941 | 114.82666 | 32783 ft | 540 kts | 93° |
| 2026-04-11 10:18 | 40.46456 | 114.92541 | 33043 ft | 544 kts | 94° |
| 2026-04-11 10:18 | 40.46211 | 114.97486 | 33437 ft | 542 kts | 94° |
| 2026-04-11 10:18 | 40.45964 | 115.02423 | 33858 ft | 540 kts | 94° |
| 2026-04-11 10:18 | 40.45714 | 115.07336 | 34185 ft | 539 kts | 94° |
| 2026-04-11 10:19 | 40.45463 | 115.12239 | 34480 ft | 539 kts | 94° |
| 2026-04-11 10:19 | 40.45209 | 115.17169 | 34705 ft | 540 kts | 94° |
| 2026-04-11 10:19 | 40.44954 | 115.22098 | 34761 ft | 542 kts | 94° |
| 2026-04-11 10:20 | 40.44436 | 115.31976 | 34808 ft | 540 kts | 93° |
| 2026-04-11 10:20 | 40.43913 | 115.41783 | 34814 ft | 538 kts | 93° |
| 2026-04-11 10:21 | 40.43385 | 115.51559 | 34836 ft | 536 kts | 93° |
| 2026-04-11 10:21 | 40.42728 | 115.61317 | 34848 ft | 536 kts | 95° |
| 2026-04-11 10:22 | 40.41902 | 115.71049 | 34858 ft | 537 kts | 96° |
| 2026-04-11 10:22 | 40.41069 | 115.80802 | 34860 ft | 538 kts | 95° |
| 2026-04-11 10:23 | 40.40259 | 115.90573 | 34876 ft | 540 kts | 95° |
| 2026-04-11 10:23 | 40.39449 | 116.00383 | 34885 ft | 542 kts | 95° |
| 2026-04-11 10:24 | 40.38630 | 116.10174 | 34893 ft | 544 kts | 95° |
| 2026-04-11 10:24 | 40.37792 | 116.20073 | 34896 ft | 546 kts | 95° |
| 2026-04-11 10:25 | 40.36945 | 116.29977 | 34908 ft | 547 kts | 95° |
| 2026-04-11 10:25 | 40.36087 | 116.39890 | 34911 ft | 548 kts | 95° |
| 2026-04-11 10:26 | 40.35219 | 116.49826 | 34921 ft | 548 kts | 95° |
| 2026-04-11 10:26 | 40.34020 | 116.59616 | 34909 ft | 548 kts | 105° |
| 2026-04-11 10:27 | 40.31370 | 116.68958 | 34925 ft | 546 kts | 118° |
| 2026-04-11 10:27 | 40.27673 | 116.77629 | 34921 ft | 544 kts | 122° |
| 2026-04-11 10:28 | 40.23864 | 116.86196 | 34920 ft | 544 kts | 122° |
| 2026-04-11 10:28 | 40.20091 | 116.94776 | 34921 ft | 544 kts | 122° |
| 2026-04-11 10:29 | 40.16351 | 117.03368 | 34926 ft | 543 kts | 121° |
| 2026-04-11 10:29 | 40.12638 | 117.11904 | 34929 ft | 543 kts | 121° |
| 2026-04-11 10:30 | 40.08896 | 117.20475 | 34939 ft | 543 kts | 121° |
| 2026-04-11 10:30 | 40.05145 | 117.29035 | 34928 ft | 543 kts | 121° |
| 2026-04-11 10:31 | 40.01387 | 117.37582 | 34945 ft | 542 kts | 121° |
| 2026-04-11 10:31 | 39.97631 | 117.46102 | 34939 ft | 542 kts | 122° |
| 2026-04-11 10:32 | 39.93866 | 117.54619 | 34951 ft | 542 kts | 122° |
| 2026-04-11 10:32 | 39.90121 | 117.63069 | 34938 ft | 542 kts | 122° |
| 2026-04-11 10:33 | 39.86347 | 117.71560 | 34952 ft | 542 kts | 122° |
| 2026-04-11 10:33 | 39.82567 | 117.80042 | 34944 ft | 542 kts | 122° |
| 2026-04-11 10:34 | 39.78771 | 117.88536 | 34954 ft | 542 kts | 122° |
| 2026-04-11 10:34 | 39.74967 | 117.97026 | 34947 ft | 543 kts | 122° |
| 2026-04-11 10:35 | 39.71187 | 118.05438 | 34960 ft | 543 kts | 122° |
| 2026-04-11 10:35 | 39.69282 | 118.09672 | 34788 ft | 540 kts | 124° |
| 2026-04-11 10:35 | 39.67394 | 118.13865 | 34858 ft | 535 kts | 124° |
| 2026-04-11 10:36 | 39.63639 | 118.22180 | 34944 ft | 533 kts | 124° |
| 2026-04-11 10:36 | 39.59881 | 118.30471 | 34955 ft | 534 kts | 124° |
| 2026-04-11 10:37 | 39.56107 | 118.38776 | 34964 ft | 535 kts | 124° |
| 2026-04-11 10:37 | 39.52321 | 118.47090 | 34958 ft | 536 kts | 124° |
| 2026-04-11 10:38 | 39.48520 | 118.55414 | 34961 ft | 537 kts | 125° |
| 2026-04-11 10:38 | 39.42830 | 118.67836 | 34963 ft | 537 kts | 125° |
| 2026-04-11 10:39 | 39.39003 | 118.76163 | 34960 ft | 537 kts | 125° |
| 2026-04-11 10:39 | 39.35180 | 118.84460 | 34966 ft | 537 kts | 125° |
| 2026-04-11 10:40 | 39.31373 | 118.92700 | 34967 ft | 537 kts | 125° |
| 2026-04-11 10:40 | 39.27538 | 119.00979 | 34969 ft | 537 kts | 125° |
| 2026-04-11 10:41 | 39.23700 | 119.09243 | 34968 ft | 536 kts | 126° |
| 2026-04-11 10:41 | 39.19859 | 119.17491 | 34970 ft | 536 kts | 126° |
| 2026-04-11 10:42 | 39.16019 | 119.25716 | 34972 ft | 536 kts | 126° |
| 2026-04-11 10:42 | 39.12175 | 119.33929 | 34968 ft | 535 kts | 126° |
| 2026-04-11 10:43 | 39.06422 | 119.46179 | 34972 ft | 535 kts | 126° |
| 2026-04-11 10:44 | 39.02562 | 119.54373 | 34971 ft | 535 kts | 126° |
| 2026-04-11 10:44 | 38.98690 | 119.62570 | 34969 ft | 536 kts | 126° |
| 2026-04-11 10:45 | 38.94818 | 119.70747 | 34972 ft | 536 kts | 126° |
| 2026-04-11 10:45 | 38.90935 | 119.78926 | 34976 ft | 536 kts | 127° |
| 2026-04-11 10:46 | 38.87048 | 119.87093 | 34973 ft | 536 kts | 127° |
| 2026-04-11 10:46 | 38.83155 | 119.95253 | 34973 ft | 536 kts | 127° |
| 2026-04-11 10:47 | 38.79280 | 120.03354 | 34978 ft | 536 kts | 127° |
| 2026-04-11 10:47 | 38.75373 | 120.11506 | 34976 ft | 536 kts | 127° |
| 2026-04-11 10:48 | 38.70775 | 120.18714 | 34980 ft | 510 kts | 150° |
| 2026-04-11 10:48 | 38.67815 | 120.21139 | 34988 ft | 499 kts | 161° |
| 2026-04-11 10:48 | 38.64635 | 120.22785 | 34980 ft | 486 kts | 174° |
| 2026-04-11 10:49 | 38.58412 | 120.26105 | 34984 ft | 515 kts | 146° |
| 2026-04-11 10:49 | 38.55978 | 120.29586 | 34982 ft | 537 kts | 127° |
| 2026-04-11 10:49 | 38.54422 | 120.33983 | 34989 ft | 550 kts | 108° |
| 2026-04-11 10:49 | 38.53935 | 120.38828 | 34973 ft | 553 kts | 89° |
| 2026-04-11 10:50 | 38.54572 | 120.43637 | 34985 ft | 550 kts | 70° |
| 2026-04-11 10:50 | 38.56728 | 120.52962 | 34977 ft | 549 kts | 89° |
| 2026-04-11 10:50 | 38.56530 | 120.57811 | 35001 ft | 545 kts | 103° |
| 2026-04-11 10:51 | 38.55713 | 120.62522 | 35011 ft | 543 kts | 109° |
| 2026-04-11 10:51 | 38.53603 | 120.71826 | 34994 ft | 547 kts | 109° |
| 2026-04-11 10:52 | 38.51776 | 120.81314 | 35002 ft | 552 kts | 105° |
| 2026-04-11 10:52 | 38.50218 | 120.90930 | 35005 ft | 553 kts | 105° |
| 2026-04-11 10:53 | 38.48670 | 121.00569 | 35004 ft | 553 kts | 105° |
| 2026-04-11 10:53 | 38.47087 | 121.10102 | 35005 ft | 551 kts | 105° |
| 2026-04-11 10:54 | 38.45527 | 121.19666 | 35005 ft | 551 kts | 104° |
| 2026-04-11 10:54 | 38.44069 | 121.29253 | 35005 ft | 549 kts | 105° |
| 2026-04-11 10:55 | 38.42485 | 121.38769 | 35008 ft | 548 kts | 105° |
| 2026-04-11 10:55 | 38.40901 | 121.48282 | 35013 ft | 548 kts | 105° |
| 2026-04-11 10:56 | 38.39322 | 121.57793 | 35016 ft | 548 kts | 105° |
| 2026-04-11 10:56 | 38.37734 | 121.67299 | 35019 ft | 549 kts | 105° |
| 2026-04-11 10:57 | 38.36138 | 121.76804 | 35020 ft | 549 kts | 105° |
| 2026-04-11 10:57 | 38.34530 | 121.86328 | 35022 ft | 550 kts | 105° |
| 2026-04-11 10:58 | 38.32913 | 121.95854 | 35022 ft | 550 kts | 105° |
| 2026-04-11 10:58 | 38.31298 | 122.05323 | 35023 ft | 551 kts | 105° |
| 2026-04-11 10:59 | 38.29663 | 122.14863 | 35033 ft | 551 kts | 106° |
| 2026-04-11 10:59 | 38.28021 | 122.24398 | 35038 ft | 552 kts | 106° |
| 2026-04-11 11:00 | 38.26577 | 122.34010 | 35039 ft | 554 kts | 103° |
| 2026-04-11 11:00 | 38.24587 | 122.43366 | 35027 ft | 542 kts | 121° |
| 2026-04-11 11:01 | 38.20558 | 122.51297 | 35041 ft | 529 kts | 140° |
| 2026-04-11 11:01 | 38.15349 | 122.57816 | 35042 ft | 527 kts | 143° |
| 2026-04-11 11:02 | 38.10128 | 122.64439 | 35036 ft | 532 kts | 142° |
| 2026-04-11 11:02 | 38.04951 | 122.71174 | 35037 ft | 533 kts | 142° |
| 2026-04-11 11:03 | 37.99782 | 122.77905 | 35039 ft | 532 kts | 142° |
| 2026-04-11 11:03 | 37.95484 | 122.83481 | 35034 ft | 531 kts | 142° |
| 2026-04-11 11:04 | 37.89482 | 122.91243 | 35030 ft | 530 kts | 143° |
| 2026-04-11 11:04 | 37.85162 | 122.96816 | 35038 ft | 529 kts | 143° |
| 2026-04-11 11:05 | 37.80038 | 123.03413 | 35046 ft | 529 kts | 143° |
| 2026-04-11 11:05 | 37.74879 | 123.10042 | 35044 ft | 529 kts | 143° |
| 2026-04-11 11:06 | 37.69712 | 123.16669 | 35045 ft | 530 kts | 143° |
| 2026-04-11 11:06 | 37.64532 | 123.23299 | 35045 ft | 531 kts | 144° |
| 2026-04-11 11:07 | 37.59330 | 123.29944 | 35044 ft | 532 kts | 144° |
| 2026-04-11 11:07 | 37.54367 | 123.36968 | 35051 ft | 543 kts | 136° |
| 2026-04-11 11:08 | 37.49883 | 123.44588 | 35047 ft | 546 kts | 135° |
| 2026-04-11 11:08 | 37.45369 | 123.52300 | 35048 ft | 546 kts | 135° |
| 2026-04-11 11:09 | 37.40812 | 123.59962 | 35035 ft | 546 kts | 136° |
| 2026-04-11 11:09 | 37.36233 | 123.67593 | 35049 ft | 546 kts | 136° |
| 2026-04-11 11:09 | 37.33939 | 123.71408 | 35464 ft | 550 kts | 133° |
| 2026-04-11 11:10 | 37.31610 | 123.75274 | 35263 ft | 557 kts | 133° |
| 2026-04-11 11:10 | 37.26937 | 123.83044 | 35123 ft | 557 kts | 133° |
| 2026-04-11 11:11 | 37.22268 | 123.90796 | 35043 ft | 555 kts | 134° |
| 2026-04-11 11:11 | 37.18261 | 123.99101 | 35038 ft | 566 kts | 114° |
| 2026-04-11 11:11 | 37.17173 | 124.03873 | 35047 ft | 571 kts | 102° |
| 2026-04-11 11:12 | 37.16763 | 124.08824 | 35032 ft | 573 kts | 89° |
| 2026-04-11 11:12 | 37.17351 | 124.18723 | 35049 ft | 574 kts | 85° |
| 2026-04-11 11:13 | 37.17769 | 124.28749 | 35045 ft | 577 kts | 88° |
| 2026-04-11 11:13 | 37.17937 | 124.38839 | 35052 ft | 580 kts | 89° |
| 2026-04-11 11:14 | 37.18161 | 124.48952 | 35042 ft | 582 kts | 88° |
| 2026-04-11 11:14 | 37.18396 | 124.59108 | 35049 ft | 583 kts | 88° |
| 2026-04-11 11:15 | 37.18617 | 124.69274 | 35037 ft | 583 kts | 88° |
| 2026-04-11 11:15 | 37.18826 | 124.79447 | 35044 ft | 583 kts | 89° |
| 2026-04-11 11:16 | 37.19029 | 124.89545 | 35033 ft | 582 kts | 89° |
| 2026-04-11 11:16 | 37.19233 | 124.99689 | 35041 ft | 581 kts | 89° |
| 2026-04-11 11:17 | 37.19431 | 125.09825 | 35028 ft | 580 kts | 89° |
| 2026-04-11 11:17 | 37.19617 | 125.19932 | 35041 ft | 579 kts | 89° |
| 2026-04-11 11:18 | 37.19795 | 125.30034 | 35031 ft | 579 kts | 89° |
| 2026-04-11 11:18 | 37.19964 | 125.40154 | 35035 ft | 580 kts | 89° |
| 2026-04-11 11:19 | 37.20125 | 125.50269 | 35028 ft | 580 kts | 89° |
| 2026-04-11 11:19 | 37.20263 | 125.60395 | 35038 ft | 581 kts | 90° |
| 2026-04-11 11:20 | 37.20387 | 125.70543 | 35028 ft | 582 kts | 90° |
| 2026-04-11 11:20 | 37.20509 | 125.80700 | 35030 ft | 582 kts | 90° |
| 2026-04-11 11:21 | 37.20622 | 125.90872 | 35021 ft | 583 kts | 90° |
| 2026-04-11 11:21 | 37.20728 | 126.00972 | 35027 ft | 583 kts | 90° |
| 2026-04-11 11:22 | 37.20825 | 126.11159 | 35019 ft | 584 kts | 90° |
| 2026-04-11 11:22 | 37.20914 | 126.21353 | 35026 ft | 584 kts | 90° |
| 2026-04-11 11:22 | 37.20956 | 126.26446 | 34674 ft | 584 kts | 91° |
| 2026-04-11 11:23 | 37.20995 | 126.31543 | 34810 ft | 585 kts | 91° |
| 2026-04-11 11:23 | 37.21032 | 126.36675 | 34918 ft | 589 kts | 91° |
| 2026-04-11 11:23 | 37.21067 | 126.41826 | 34976 ft | 593 kts | 91° |
| 2026-04-11 11:24 | 37.21133 | 126.52201 | 35026 ft | 596 kts | 91° |
| 2026-04-11 11:24 | 37.21197 | 126.62622 | 35021 ft | 598 kts | 91° |
| 2026-04-11 11:25 | 37.21253 | 126.73048 | 35011 ft | 598 kts | 91° |
| 2026-04-11 11:25 | 37.21300 | 126.83409 | 35007 ft | 596 kts | 91° |
| 2026-04-11 11:26 | 37.21693 | 126.93766 | 34998 ft | 593 kts | 77° |
| 2026-04-11 11:26 | 37.22828 | 126.98712 | 35019 ft | 587 kts | 64° |
| 2026-04-11 11:26 | 37.24550 | 127.03309 | 35016 ft | 579 kts | 54° |
| 2026-04-11 11:26 | 37.26814 | 127.07439 | 35012 ft | 565 kts | 40° |
| 2026-04-11 11:27 | 37.29451 | 127.11047 | 35023 ft | 560 kts | 38° |
| 2026-04-11 11:27 | 37.32008 | 127.14744 | 34997 ft | 569 kts | 49° |
| 2026-04-11 11:27 | 37.33844 | 127.19215 | 35004 ft | 584 kts | 69° |
| 2026-04-11 11:27 | 37.34763 | 127.24230 | 35025 ft | 592 kts | 83° |
| 2026-04-11 11:28 | 37.34911 | 127.29411 | 35012 ft | 596 kts | 96° |
| 2026-04-11 11:28 | 37.34218 | 127.34451 | 34997 ft | 588 kts | 110° |
| 2026-04-11 11:28 | 37.33104 | 127.39405 | 34998 ft | 589 kts | 111° |
| 2026-04-11 11:29 | 37.29600 | 127.54262 | 34993 ft | 594 kts | 111° |
| 2026-04-11 11:29 | 37.27351 | 127.64282 | 34982 ft | 596 kts | 110° |
| 2026-04-11 11:30 | 37.25157 | 127.74317 | 34981 ft | 595 kts | 110° |
| 2026-04-11 11:30 | 37.22968 | 127.84323 | 34959 ft | 592 kts | 110° |
| 2026-04-11 11:31 | 37.20766 | 127.94269 | 34967 ft | 590 kts | 110° |
| 2026-04-11 11:31 | 37.18560 | 128.04167 | 34974 ft | 588 kts | 110° |
| 2026-04-11 11:32 | 37.16350 | 128.14028 | 34967 ft | 587 kts | 110° |
| 2026-04-11 11:32 | 37.14146 | 128.23825 | 34966 ft | 587 kts | 110° |
| 2026-04-11 11:33 | 37.11920 | 128.33688 | 34965 ft | 589 kts | 110° |
| 2026-04-11 11:33 | 37.09681 | 128.43566 | 34957 ft | 591 kts | 110° |
| 2026-04-11 11:34 | 37.07425 | 128.53466 | 34966 ft | 591 kts | 110° |
| 2026-04-11 11:34 | 37.05157 | 128.63392 | 34942 ft | 593 kts | 110° |
| 2026-04-11 11:35 | 37.02876 | 128.73331 | 34948 ft | 594 kts | 110° |
| 2026-04-11 11:35 | 37.00580 | 128.83290 | 34926 ft | 596 kts | 110° |
| 2026-04-11 11:36 | 36.98272 | 128.93253 | 34948 ft | 596 kts | 110° |
| 2026-04-11 11:36 | 36.95957 | 129.03208 | 34946 ft | 596 kts | 110° |
| 2026-04-11 11:37 | 36.93649 | 129.13099 | 34950 ft | 596 kts | 110° |
| 2026-04-11 11:37 | 36.91315 | 129.23057 | 34938 ft | 598 kts | 111° |
| 2026-04-11 11:38 | 36.88968 | 129.33024 | 34933 ft | 598 kts | 111° |
| 2026-04-11 11:38 | 36.86610 | 129.42991 | 34931 ft | 598 kts | 111° |
| 2026-04-11 11:39 | 36.84247 | 129.52946 | 34936 ft | 598 kts | 111° |
| 2026-04-11 11:39 | 36.81873 | 129.62908 | 34941 ft | 599 kts | 111° |
| 2026-04-11 11:40 | 36.79482 | 129.72895 | 34945 ft | 600 kts | 111° |
| 2026-04-11 11:40 | 36.77085 | 129.82869 | 34947 ft | 601 kts | 111° |
| 2026-04-11 11:41 | 36.74674 | 129.92859 | 34954 ft | 601 kts | 111° |
| 2026-04-11 11:41 | 36.72253 | 130.02848 | 34959 ft | 602 kts | 111° |
| 2026-04-11 11:42 | 36.69822 | 130.12840 | 34955 ft | 602 kts | 111° |
| 2026-04-11 11:42 | 36.67402 | 130.22748 | 34955 ft | 602 kts | 111° |
| 2026-04-11 11:43 | 36.64956 | 130.32720 | 34956 ft | 602 kts | 111° |
| 2026-04-11 11:43 | 36.62502 | 130.42684 | 34956 ft | 602 kts | 111° |
| 2026-04-11 11:44 | 36.60041 | 130.52638 | 34955 ft | 602 kts | 111° |
| 2026-04-11 11:44 | 36.57568 | 130.62598 | 34955 ft | 601 kts | 111° |
| 2026-04-11 11:45 | 36.55090 | 130.72540 | 34959 ft | 601 kts | 111° |
| 2026-04-11 11:45 | 36.52606 | 130.82468 | 34962 ft | 601 kts | 111° |
| 2026-04-11 11:46 | 36.50108 | 130.92413 | 34958 ft | 602 kts | 111° |
| 2026-04-11 11:46 | 36.47620 | 131.02277 | 34958 ft | 602 kts | 111° |
| 2026-04-11 11:47 | 36.45104 | 131.12212 | 34958 ft | 602 kts | 111° |
| 2026-04-11 11:47 | 36.42584 | 131.22130 | 34958 ft | 602 kts | 111° |
| 2026-04-11 11:48 | 36.40480 | 131.30382 | 34958 ft | 603 kts | 112° |
| 2026-04-11 11:48 | 36.38135 | 131.40388 | 34958 ft | 606 kts | 105° |
| 2026-04-11 11:49 | 36.36896 | 131.50763 | 34957 ft | 610 kts | 93° |
| 2026-04-11 11:49 | 36.36622 | 131.61284 | 34965 ft | 610 kts | 91° |
| 2026-04-11 11:50 | 36.36391 | 131.71821 | 34960 ft | 611 kts | 92° |
| 2026-04-11 11:50 | 36.36088 | 131.82304 | 34959 ft | 612 kts | 92° |
| 2026-04-11 11:51 | 36.35733 | 131.92859 | 34959 ft | 612 kts | 92° |
| 2026-04-11 11:51 | 36.35365 | 132.03418 | 34958 ft | 613 kts | 92° |
| 2026-04-11 11:52 | 36.34994 | 132.14007 | 34962 ft | 613 kts | 92° |
| 2026-04-11 11:52 | 36.34619 | 132.24580 | 34961 ft | 614 kts | 92° |
| 2026-04-11 11:53 | 36.34236 | 132.35103 | 34958 ft | 614 kts | 92° |
| 2026-04-11 11:53 | 36.33841 | 132.45699 | 34961 ft | 615 kts | 92° |
| 2026-04-11 11:54 | 36.33436 | 132.56290 | 34958 ft | 615 kts | 92° |
| 2026-04-11 11:54 | 36.33020 | 132.66901 | 34962 ft | 616 kts | 92° |
| 2026-04-11 11:55 | 36.32597 | 132.77507 | 34957 ft | 616 kts | 92° |
| 2026-04-11 11:55 | 36.32164 | 132.88123 | 34958 ft | 616 kts | 92° |
| 2026-04-11 11:56 | 36.31724 | 132.98663 | 34958 ft | 616 kts | 92° |
| 2026-04-11 11:56 | 36.31269 | 133.09299 | 34967 ft | 617 kts | 92° |
| 2026-04-11 11:57 | 36.30806 | 133.19914 | 34970 ft | 617 kts | 92° |
| 2026-04-11 11:57 | 36.30332 | 133.30555 | 34980 ft | 618 kts | 92° |
| 2026-04-11 11:58 | 36.29850 | 133.41193 | 34958 ft | 618 kts | 92° |
| 2026-04-11 11:58 | 36.29359 | 133.51828 | 34966 ft | 618 kts | 92° |
| 2026-04-11 11:59 | 36.28859 | 133.62407 | 34968 ft | 618 kts | 92° |
| 2026-04-11 11:59 | 36.28349 | 133.73043 | 34958 ft | 618 kts | 93° |
| 2026-04-11 12:00 | 36.27821 | 133.83672 | 34969 ft | 618 kts | 93° |
| 2026-04-11 12:00 | 36.27266 | 133.94309 | 34967 ft | 618 kts | 93° |
| 2026-04-11 12:01 | 36.26705 | 134.04952 | 34977 ft | 619 kts | 93° |
| 2026-04-11 12:01 | 36.26147 | 134.15523 | 34967 ft | 619 kts | 93° |
| 2026-04-11 12:02 | 36.25594 | 134.26174 | 34985 ft | 620 kts | 93° |
| 2026-04-11 12:02 | 36.25030 | 134.36848 | 34973 ft | 620 kts | 94° |
| 2026-04-11 12:03 | 36.24678 | 134.47533 | 34976 ft | 620 kts | 86° |
| 2026-04-11 12:03 | 36.25462 | 134.58134 | 34978 ft | 615 kts | 75° |
| 2026-04-11 12:04 | 36.27225 | 134.68413 | 34985 ft | 614 kts | 72° |
| 2026-04-11 12:04 | 36.29060 | 134.78754 | 34985 ft | 615 kts | 73° |
| 2026-04-11 12:05 | 36.30827 | 134.89131 | 34989 ft | 616 kts | 73° |
| 2026-04-11 12:05 | 36.32548 | 134.99556 | 34990 ft | 617 kts | 74° |
| 2026-04-11 12:06 | 36.34254 | 135.09989 | 34993 ft | 617 kts | 74° |
| 2026-04-11 12:06 | 36.35959 | 135.20424 | 34986 ft | 617 kts | 74° |
| 2026-04-11 12:07 | 36.37661 | 135.30871 | 34990 ft | 617 kts | 74° |
| 2026-04-11 12:07 | 36.39343 | 135.41255 | 34985 ft | 617 kts | 74° |
| 2026-04-11 12:08 | 36.41027 | 135.51711 | 34990 ft | 617 kts | 74° |
| 2026-04-11 12:08 | 36.42699 | 135.62161 | 34984 ft | 617 kts | 74° |
| 2026-04-11 12:09 | 36.44365 | 135.72635 | 34986 ft | 617 kts | 74° |
| 2026-04-11 12:09 | 36.46008 | 135.83024 | 34985 ft | 617 kts | 74° |
| 2026-04-11 12:10 | 36.47653 | 135.93492 | 34984 ft | 617 kts | 74° |
| 2026-04-11 12:10 | 36.49290 | 136.03967 | 34978 ft | 617 kts | 74° |
| 2026-04-11 12:11 | 36.50917 | 136.14440 | 34975 ft | 618 kts | 74° |
| 2026-04-11 12:11 | 36.52536 | 136.24926 | 34972 ft | 618 kts | 74° |
| 2026-04-11 12:12 | 36.54138 | 136.35370 | 34969 ft | 618 kts | 74° |
| 2026-04-11 12:12 | 36.55739 | 136.45869 | 34968 ft | 618 kts | 75° |
| 2026-04-11 12:13 | 36.57334 | 136.56388 | 34973 ft | 618 kts | 75° |
| 2026-04-11 12:13 | 36.58920 | 136.66922 | 34975 ft | 619 kts | 75° |
| 2026-04-11 12:14 | 36.60496 | 136.77455 | 34970 ft | 619 kts | 75° |
| 2026-04-11 12:14 | 36.62053 | 136.87914 | 34960 ft | 619 kts | 75° |
| 2026-04-11 12:15 | 36.63610 | 136.98463 | 34951 ft | 619 kts | 75° |
| 2026-04-11 12:15 | 36.65126 | 137.09016 | 34946 ft | 619 kts | 75° |
| 2026-04-11 12:16 | 36.66623 | 137.19594 | 34942 ft | 620 kts | 76° |
| 2026-04-11 12:16 | 36.68113 | 137.30155 | 34950 ft | 620 kts | 76° |
| 2026-04-11 12:17 | 36.69591 | 137.40666 | 34960 ft | 620 kts | 76° |
| 2026-04-11 12:17 | 36.71074 | 137.51268 | 34975 ft | 620 kts | 76° |
| 2026-04-11 12:18 | 36.72543 | 137.61872 | 34972 ft | 621 kts | 76° |
| 2026-04-11 12:19 | 36.74727 | 137.77741 | 34906 ft | 621 kts | 76° |
| 2026-04-11 12:19 | 36.76168 | 137.88298 | 34900 ft | 614 kts | 76° |
| 2026-04-11 12:20 | 36.77584 | 137.98778 | 34878 ft | 614 kts | 76° |
| 2026-04-11 12:20 | 36.79004 | 138.09304 | 34894 ft | 617 kts | 76° |
| 2026-04-11 12:21 | 36.80451 | 138.19868 | 34926 ft | 619 kts | 76° |
| 2026-04-11 12:21 | 36.81927 | 138.30502 | 34915 ft | 622 kts | 76° |
| 2026-04-11 12:22 | 36.83385 | 138.41149 | 34913 ft | 621 kts | 76° |
| 2026-04-11 12:22 | 36.84806 | 138.51659 | 34888 ft | 615 kts | 76° |
| 2026-04-11 12:23 | 36.86200 | 138.62151 | 34885 ft | 611 kts | 77° |
| 2026-04-11 12:23 | 36.87578 | 138.72622 | 34886 ft | 613 kts | 76° |
| 2026-04-11 12:24 | 36.88953 | 138.83158 | 34907 ft | 617 kts | 77° |
| 2026-04-11 12:24 | 36.90333 | 138.93775 | 34903 ft | 619 kts | 77° |
| 2026-04-11 12:25 | 36.91704 | 139.04405 | 34895 ft | 619 kts | 77° |
| 2026-04-11 12:25 | 36.93074 | 139.15015 | 34868 ft | 617 kts | 77° |
| 2026-04-11 12:26 | 36.94443 | 139.25523 | 34884 ft | 615 kts | 77° |
| 2026-04-11 12:26 | 36.95812 | 139.36088 | 34865 ft | 614 kts | 77° |
| 2026-04-11 12:27 | 36.97163 | 139.46627 | 34872 ft | 613 kts | 77° |
| 2026-04-11 12:27 | 36.98490 | 139.57155 | 34830 ft | 611 kts | 77° |
| 2026-04-11 12:28 | 36.99790 | 139.67598 | 34836 ft | 611 kts | 77° |
| 2026-04-11 12:28 | 37.01093 | 139.78100 | 34835 ft | 612 kts | 77° |
| 2026-04-11 12:29 | 37.02378 | 139.88632 | 34833 ft | 613 kts | 77° |
| 2026-04-11 12:29 | 37.03657 | 139.99203 | 34829 ft | 614 kts | 77° |
| 2026-04-11 12:30 | 37.04968 | 140.09780 | 34821 ft | 615 kts | 77° |
| 2026-04-11 12:30 | 37.06312 | 140.20365 | 34830 ft | 616 kts | 77° |
| 2026-04-11 12:31 | 37.07614 | 140.30956 | 34816 ft | 615 kts | 78° |
| 2026-04-11 12:31 | 37.08857 | 140.41519 | 34802 ft | 612 kts | 78° |
| 2026-04-11 12:32 | 37.09966 | 140.51994 | 34792 ft | 610 kts | 87° |
| 2026-04-11 12:32 | 37.09678 | 140.57291 | 34802 ft | 608 kts | 102° |
| 2026-04-11 12:32 | 37.08605 | 140.62383 | 34800 ft | 602 kts | 114° |
| 2026-04-11 12:32 | 37.07130 | 140.66645 | 34391 ft | 600 kts | 125° |
| 2026-04-11 12:33 | 37.04742 | 140.70834 | 33534 ft | 583 kts | 144° |
| 2026-04-11 12:33 | 37.01660 | 140.73884 | 32704 ft | 549 kts | 164° |
| 2026-04-11 12:33 | 36.98255 | 140.75562 | 32028 ft | 506 kts | 184° |
| 2026-04-11 12:33 | 36.94891 | 140.75943 | 31360 ft | 471 kts | 197° |
| 2026-04-11 12:34 | 36.91677 | 140.75663 | 30590 ft | 458 kts | 201° |
| 2026-04-11 12:34 | 36.88532 | 140.75131 | 29776 ft | 452 kts | 204° |
| 2026-04-11 12:34 | 36.85511 | 140.74280 | 28870 ft | 439 kts | 209° |
| 2026-04-11 12:34 | 36.82605 | 140.73193 | 28174 ft | 431 kts | 210° |
| 2026-04-11 12:35 | 36.79767 | 140.72065 | 27607 ft | 424 kts | 211° |
| 2026-04-11 12:35 | 36.76970 | 140.70947 | 27015 ft | 419 kts | 210° |
| 2026-04-11 12:35 | 36.74199 | 140.69852 | 26413 ft | 416 kts | 210° |
| 2026-04-11 12:35 | 36.71450 | 140.68783 | 25788 ft | 413 kts | 209° |
| 2026-04-11 12:36 | 36.68716 | 140.67732 | 25196 ft | 410 kts | 209° |
| 2026-04-11 12:36 | 36.66000 | 140.66696 | 24617 ft | 406 kts | 208° |
| 2026-04-11 12:36 | 36.63305 | 140.65669 | 24000 ft | 404 kts | 208° |
| 2026-04-11 12:36 | 36.60680 | 140.64671 | 23467 ft | 400 kts | 208° |
| 2026-04-11 12:37 | 36.58017 | 140.63660 | 22849 ft | 396 kts | 208° |
| 2026-04-11 12:37 | 36.55409 | 140.62673 | 22305 ft | 391 kts | 208° |
| 2026-04-11 12:37 | 36.52823 | 140.61691 | 21767 ft | 386 kts | 208° |
| 2026-04-11 12:37 | 36.50266 | 140.60717 | 21256 ft | 381 kts | 208° |
| 2026-04-11 12:38 | 36.47744 | 140.59755 | 20760 ft | 377 kts | 208° |
| 2026-04-11 12:38 | 36.45243 | 140.58801 | 20264 ft | 374 kts | 207° |
| 2026-04-11 12:38 | 36.42763 | 140.57855 | 19795 ft | 371 kts | 207° |
| 2026-04-11 12:38 | 36.40306 | 140.56920 | 19314 ft | 368 kts | 207° |
| 2026-04-11 12:39 | 36.37861 | 140.55991 | 18841 ft | 366 kts | 207° |
| 2026-04-11 12:39 | 36.35385 | 140.55274 | 18346 ft | 374 kts | 195° |
| 2026-04-11 12:39 | 36.33616 | 140.55338 | 18029 ft | 390 kts | 182° |
| 2026-04-11 12:39 | 36.30940 | 140.56324 | 17525 ft | 413 kts | 165° |
| 2026-04-11 12:40 | 36.28465 | 140.58315 | 17033 ft | 441 kts | 144° |
| 2026-04-11 12:40 | 36.26355 | 140.61169 | 16579 ft | 454 kts | 137° |
| 2026-04-11 12:40 | 36.24276 | 140.64113 | 16058 ft | 453 kts | 138° |
| 2026-04-11 12:40 | 36.22167 | 140.66985 | 15575 ft | 449 kts | 139° |
| 2026-04-11 12:41 | 36.20051 | 140.69798 | 15076 ft | 444 kts | 139° |
| 2026-04-11 12:41 | 36.17950 | 140.72569 | 14595 ft | 440 kts | 139° |
| 2026-04-11 12:41 | 36.15867 | 140.75319 | 14114 ft | 436 kts | 139° |
| 2026-04-11 12:41 | 36.13805 | 140.78024 | 13749 ft | 422 kts | 141° |
| 2026-04-11 12:42 | 36.11605 | 140.80115 | 13330 ft | 378 kts | 161° |
| 2026-04-11 12:42 | 36.09232 | 140.81199 | 12628 ft | 359 kts | 171° |
| 2026-04-11 12:42 | 36.06861 | 140.82155 | 12225 ft | 357 kts | 169° |
| 2026-04-11 12:43 | 36.02246 | 140.84189 | 11521 ft | 348 kts | 167° |
| 2026-04-11 12:43 | 35.99986 | 140.85193 | 11227 ft | 341 kts | 167° |
| 2026-04-11 12:43 | 35.97810 | 140.86162 | 11081 ft | 321 kts | 168° |
| 2026-04-11 12:43 | 35.95741 | 140.87081 | 10712 ft | 313 kts | 168° |
| 2026-04-11 12:44 | 35.93713 | 140.87973 | 10429 ft | 307 kts | 168° |
| 2026-04-11 12:44 | 35.91712 | 140.88851 | 10091 ft | 304 kts | 167° |
| 2026-04-11 12:44 | 35.89718 | 140.89726 | 9713 ft | 303 kts | 167° |
| 2026-04-11 12:44 | 35.87734 | 140.90598 | 9316 ft | 301 kts | 167° |
| 2026-04-11 12:45 | 35.85770 | 140.91463 | 8951 ft | 299 kts | 167° |
| 2026-04-11 12:45 | 35.83809 | 140.92326 | 8563 ft | 297 kts | 166° |
| 2026-04-11 12:45 | 35.81891 | 140.93169 | 8170 ft | 295 kts | 166° |
| 2026-04-11 12:45 | 35.79961 | 140.94018 | 7779 ft | 294 kts | 166° |
| 2026-04-11 12:46 | 35.78046 | 140.94859 | 7450 ft | 290 kts | 165° |
| 2026-04-11 12:46 | 35.76129 | 140.95423 | 7127 ft | 278 kts | 186° |
| 2026-04-11 12:46 | 35.74291 | 140.94930 | 6856 ft | 269 kts | 209° |
| 2026-04-11 12:46 | 35.72715 | 140.93735 | 6622 ft | 266 kts | 220° |
| 2026-04-11 12:47 | 35.71212 | 140.92381 | 6388 ft | 269 kts | 220° |
| 2026-04-11 12:47 | 35.69696 | 140.91012 | 6159 ft | 269 kts | 220° |
| 2026-04-11 12:47 | 35.68196 | 140.89670 | 5889 ft | 263 kts | 220° |
| 2026-04-11 12:47 | 35.66731 | 140.88367 | 5667 ft | 257 kts | 220° |
| 2026-04-11 12:48 | 35.65288 | 140.87089 | 5483 ft | 254 kts | 220° |
| 2026-04-11 12:48 | 35.63853 | 140.85817 | 5306 ft | 254 kts | 220° |
| 2026-04-11 12:48 | 35.62419 | 140.84546 | 5122 ft | 253 kts | 220° |
| 2026-04-11 12:48 | 35.61008 | 140.83297 | 4949 ft | 253 kts | 219° |
| 2026-04-11 12:49 | 35.59565 | 140.82020 | 4798 ft | 257 kts | 219° |
| 2026-04-11 12:49 | 35.58100 | 140.80724 | 4644 ft | 261 kts | 219° |
| 2026-04-11 12:49 | 35.56622 | 140.79418 | 4516 ft | 262 kts | 219° |
| 2026-04-11 12:49 | 35.55138 | 140.78110 | 4357 ft | 263 kts | 219° |
| 2026-04-11 12:50 | 35.53653 | 140.76801 | 4205 ft | 263 kts | 219° |
| 2026-04-11 12:50 | 35.52208 | 140.75454 | 4062 ft | 254 kts | 228° |
| 2026-04-11 12:50 | 35.51060 | 140.73865 | 3984 ft | 246 kts | 235° |
| 2026-04-11 12:50 | 35.50000 | 140.72232 | 3976 ft | 244 kts | 235° |
| 2026-04-11 12:51 | 35.48932 | 140.70606 | 3981 ft | 245 kts | 235° |
| 2026-04-11 12:51 | 35.47862 | 140.68969 | 3971 ft | 243 kts | 240° |
| 2026-04-11 12:51 | 35.47296 | 140.67124 | 3979 ft | 231 kts | 271° |
| 2026-04-11 12:51 | 35.47516 | 140.65222 | 3970 ft | 223 kts | 293° |
| 2026-04-11 12:52 | 35.48192 | 140.63543 | 3977 ft | 218 kts | 301° |
| 2026-04-11 12:52 | 35.48957 | 140.61934 | 3950 ft | 215 kts | 302° |
| 2026-04-11 12:52 | 35.49701 | 140.60372 | 3970 ft | 210 kts | 302° |
| 2026-04-11 12:52 | 35.50432 | 140.58826 | 3958 ft | 208 kts | 301° |
| 2026-04-11 12:53 | 35.51154 | 140.57286 | 3976 ft | 206 kts | 301° |
| 2026-04-11 12:53 | 35.51890 | 140.55799 | 3988 ft | 203 kts | 311° |
| 2026-04-11 12:53 | 35.52969 | 140.54674 | 3988 ft | 206 kts | 324° |
| 2026-04-11 12:53 | 35.54141 | 140.53702 | 3971 ft | 200 kts | 327° |
| 2026-04-11 12:54 | 35.55301 | 140.52824 | 3949 ft | 191 kts | 328° |
| 2026-04-11 12:54 | 35.56427 | 140.52001 | 3971 ft | 190 kts | 328° |
| 2026-04-11 12:54 | 35.57576 | 140.51169 | 3845 ft | 187 kts | 328° |
| 2026-04-11 12:54 | 35.58646 | 140.50399 | 3619 ft | 170 kts | 328° |
| 2026-04-11 12:55 | 35.59622 | 140.49696 | 3379 ft | 154 kts | 328° |
| 2026-04-11 12:55 | 35.60486 | 140.49073 | 3210 ft | 142 kts | 329° |
| 2026-04-11 12:55 | 35.61342 | 140.48454 | 3051 ft | 144 kts | 329° |
| 2026-04-11 12:55 | 35.62207 | 140.47830 | 2843 ft | 144 kts | 330° |
| 2026-04-11 12:56 | 35.63075 | 140.47204 | 2658 ft | 145 kts | 330° |
| 2026-04-11 12:56 | 35.63953 | 140.46570 | 2463 ft | 147 kts | 330° |
| 2026-04-11 12:56 | 35.64837 | 140.45932 | 2274 ft | 148 kts | 330° |
| 2026-04-11 12:56 | 35.65725 | 140.45291 | 2058 ft | 149 kts | 330° |
| 2026-04-11 12:57 | 35.66631 | 140.44637 | 1857 ft | 153 kts | 331° |
| 2026-04-11 12:57 | 35.67554 | 140.43970 | 1673 ft | 155 kts | 332° |
| 2026-04-11 12:57 | 35.68493 | 140.43291 | 1445 ft | 158 kts | 332° |
| 2026-04-11 12:57 | 35.69435 | 140.42611 | 1239 ft | 156 kts | 332° |
| 2026-04-11 12:58 | 35.70357 | 140.41944 | 1045 ft | 156 kts | 332° |
| 2026-04-11 12:58 | 35.71287 | 140.41271 | 852 ft | 154 kts | 332° |
| 2026-04-11 12:58 | 35.72205 | 140.40606 | 650 ft | 152 kts | 332° |
| 2026-04-11 12:58 | 35.73114 | 140.39947 | 460 ft | 152 kts | 330° |
| 2026-04-11 12:59 | 35.74028 | 140.39287 | 267 ft | 151 kts | 332° |
| 2026-04-11 12:59 | 35.74925 | 140.38651 | 159 ft | 146 kts | 332° |
| 2026-04-11 12:59 | 35.75725 | 140.38072 | 153 ft | 117 kts | 329° |
| 2026-04-11 12:59 | 35.76246 | 140.37698 | 145 ft | 53 kts | 329° |
| 2026-04-11 13:00 | 35.76523 | 140.37551 | 148 ft | 36 kts | 344° |
| 2026-04-11 13:00 | 35.76658 | 140.37509 | 148 ft | 16 kts | 347° |
| 2026-04-11 13:00 | 35.76771 | 140.37493 | 146 ft | 16 kts | 19° |
| 2026-04-11 13:00 | 35.76773 | 140.37572 | 146 ft | 11 kts | 143° |
| 2026-04-11 13:01 | 35.76701 | 140.37618 | 145 ft | 16 kts | 151° |
| 2026-04-11 13:01 | 35.76602 | 140.37847 | 144 ft | 18 kts | 60° |
| 2026-04-11 13:01 | 35.76663 | 140.37976 | 145 ft | 17 kts | 60° |
| 2026-04-11 13:02 | 35.76720 | 140.38094 | 144 ft | 14 kts | 60° |
| 2026-04-11 13:02 | 35.76769 | 140.38179 | 145 ft | 11 kts | 30° |
| 2026-04-11 13:02 | 35.76838 | 140.38152 | 146 ft | 9 kts | 333° |
| 2026-04-11 13:02 | 35.76864 | 140.38136 | 146 ft | 0 kts | 333° |